<?xml version="1.0" encoding="UTF-8" standalone="no" ?><gpx xmlns="http://www.topografix.com/GPX/1/1" xmlns:gpxx="http://www.garmin.com/xmlschemas/GpxExtensions/v3" xmlns:wptx1="http://www.garmin.com/xmlschemas/WaypointExtension/v1" xmlns:gpxtpx="http://www.garmin.com/xmlschemas/TrackPointExtension/v1" creator="GuideVTT.com" version="1.1" xmlns:xsi="http://www.w3.org/2001/XMLSchema-instance" xsi:schemaLocation="http://www.topografix.com/GPX/1/1 http://www.topografix.com/GPX/1/1/gpx.xsd http://www.garmin.com/xmlschemas/GpxExtensions/v3 http://www8.garmin.com/xmlschemas/GpxExtensionsv3.xsd http://www.garmin.com/xmlschemas/WaypointExtension/v1 http://www8.garmin.com/xmlschemas/WaypointExtensionv1.xsd http://www.garmin.com/xmlschemas/TrackPointExtension/v1 http://www.garmin.com/xmlschemas/TrackPointExtensionv1.xsd">
<metadata><link href="http://www.garmin.com"><text>Garmin International</text></link><time>2013-06-22T15:13:50Z</time></metadata>
<trk><name>zillebeke.gpx</name><extensions><gpxx:TrackExtension><gpxx:DisplayColor>Cyan</gpxx:DisplayColor></gpxx:TrackExtension></extensions><trkseg>
<trkpt lat="50.83891670" lon="2.92153820"><ele>34.26416</ele><time>2009-04-13T06:31:49Z</time></trkpt>
<trkpt lat="50.83891790" lon="2.92154240"><ele>30.899536</ele><time>2009-04-13T06:32:02Z</time></trkpt>
<trkpt lat="50.83891850" lon="2.92154030"><ele>37.148071</ele><time>2009-04-13T06:32:03Z</time></trkpt>
<trkpt lat="50.83891790" lon="2.92153720"><ele>33.783447</ele><time>2009-04-13T06:32:04Z</time></trkpt>
<trkpt lat="50.83891680" lon="2.92153410"><ele>29.45752</ele><time>2009-04-13T06:32:06Z</time></trkpt>
<trkpt lat="50.83891510" lon="2.92153310"><ele>36.186768</ele><time>2009-04-13T06:32:07Z</time></trkpt>
<trkpt lat="50.83892340" lon="2.92146780"><ele>33.783447</ele><time>2009-04-13T06:32:19Z</time></trkpt>
<trkpt lat="50.83892100" lon="2.92147860"><ele>32.822266</ele><time>2009-04-13T06:32:36Z</time></trkpt>
<trkpt lat="50.83891060" lon="2.92148070"><ele>33.783447</ele><time>2009-04-13T06:33:29Z</time></trkpt>
<trkpt lat="50.83852140" lon="2.92162920"><ele>31.860718</ele><time>2009-04-13T06:33:41Z</time></trkpt>
<trkpt lat="50.83769290" lon="2.92183630"><ele>28.496216</ele><time>2009-04-13T06:33:56Z</time></trkpt>
<trkpt lat="50.83689640" lon="2.92205580"><ele>25.612305</ele><time>2009-04-13T06:34:09Z</time></trkpt>
<trkpt lat="50.83661100" lon="2.92209550"><ele>25.131714</ele><time>2009-04-13T06:34:13Z</time></trkpt>
<trkpt lat="50.83623330" lon="2.92214260"><ele>26.573608</ele><time>2009-04-13T06:34:23Z</time></trkpt>
<trkpt lat="50.83623330" lon="2.92214260"><ele>26.573608</ele><time>2009-04-13T06:34:26Z</time></trkpt>
<trkpt lat="50.83617840" lon="2.92186750"><ele>25.612305</ele><time>2009-04-13T06:34:30Z</time></trkpt>
<trkpt lat="50.83616430" lon="2.92136410"><ele>26.092896</ele><time>2009-04-13T06:34:42Z</time></trkpt>
<trkpt lat="50.83615590" lon="2.92106740"><ele>25.612305</ele><time>2009-04-13T06:34:52Z</time></trkpt>
<trkpt lat="50.83615480" lon="2.92102740"><ele>29.45752</ele><time>2009-04-13T06:35:02Z</time></trkpt>
<trkpt lat="50.83615480" lon="2.92102740"><ele>27.534912</ele><time>2009-04-13T06:35:03Z</time></trkpt>
<trkpt lat="50.83615480" lon="2.92102740"><ele>26.573608</ele><time>2009-04-13T06:35:05Z</time></trkpt>
<trkpt lat="50.83615480" lon="2.92102740"><ele>26.092896</ele><time>2009-04-13T06:35:08Z</time></trkpt>
<trkpt lat="50.83615480" lon="2.92102740"><ele>26.573608</ele><time>2009-04-13T06:35:21Z</time></trkpt>
<trkpt lat="50.83615680" lon="2.92109900"><ele>26.573608</ele><time>2009-04-13T06:35:40Z</time></trkpt>
<trkpt lat="50.83615680" lon="2.92109900"><ele>26.092896</ele><time>2009-04-13T06:35:58Z</time></trkpt>
<trkpt lat="50.83615680" lon="2.92109900"><ele>27.054321</ele><time>2009-04-13T06:36:32Z</time></trkpt>
<trkpt lat="50.83615680" lon="2.92109900"><ele>27.054321</ele><time>2009-04-13T06:37:00Z</time></trkpt>
<trkpt lat="50.83615680" lon="2.92109900"><ele>27.054321</ele><time>2009-04-13T06:37:15Z</time></trkpt>
<trkpt lat="50.83615680" lon="2.92109900"><ele>26.573608</ele><time>2009-04-13T06:37:35Z</time></trkpt>
<trkpt lat="50.83615680" lon="2.92109900"><ele>26.092896</ele><time>2009-04-13T06:37:50Z</time></trkpt>
<trkpt lat="50.83615680" lon="2.92109900"><ele>27.534912</ele><time>2009-04-13T06:38:24Z</time></trkpt>
<trkpt lat="50.83615430" lon="2.92100880"><ele>27.054321</ele><time>2009-04-13T06:38:36Z</time></trkpt>
<trkpt lat="50.83615430" lon="2.92100880"><ele>27.054321</ele><time>2009-04-13T06:38:41Z</time></trkpt>
<trkpt lat="50.83615650" lon="2.92108860"><ele>27.054321</ele><time>2009-04-13T06:38:49Z</time></trkpt>
<trkpt lat="50.83615650" lon="2.92108860"><ele>27.054321</ele><time>2009-04-13T06:38:54Z</time></trkpt>
<trkpt lat="50.83661560" lon="2.92124750"><ele>27.054321</ele><time>2009-04-13T06:38:59Z</time></trkpt>
<trkpt lat="50.83627540" lon="2.92111400"><ele>27.054321</ele><time>2009-04-13T06:39:03Z</time></trkpt>
<trkpt lat="50.83616320" lon="2.92132610"><ele>27.054321</ele><time>2009-04-13T06:39:07Z</time></trkpt>
<trkpt lat="50.83618100" lon="2.92195730"><ele>27.534912</ele><time>2009-04-13T06:39:18Z</time></trkpt>
<trkpt lat="50.83618100" lon="2.92195730"><ele>27.534912</ele><time>2009-04-13T06:39:29Z</time></trkpt>
<trkpt lat="50.83580500" lon="2.92217680"><ele>27.054321</ele><time>2009-04-13T06:39:41Z</time></trkpt>
<trkpt lat="50.83512980" lon="2.92222680"><ele>27.054321</ele><time>2009-04-13T06:39:55Z</time></trkpt>
<trkpt lat="50.83507480" lon="2.92223080"><ele>27.054321</ele><time>2009-04-13T06:39:56Z</time></trkpt>
<trkpt lat="50.83453740" lon="2.92246070"><ele>28.976929</ele><time>2009-04-13T06:40:08Z</time></trkpt>
<trkpt lat="50.83438090" lon="2.92225880"><ele>28.015503</ele><time>2009-04-13T06:40:12Z</time></trkpt>
<trkpt lat="50.83429010" lon="2.92202030"><ele>26.573608</ele><time>2009-04-13T06:40:15Z</time></trkpt>
<trkpt lat="50.83375310" lon="2.92100590"><ele>25.612305</ele><time>2009-04-13T06:40:29Z</time></trkpt>
<trkpt lat="50.83365310" lon="2.92077230"><ele>25.612305</ele><time>2009-04-13T06:40:32Z</time></trkpt>
<trkpt lat="50.83336970" lon="2.92063090"><ele>28.015503</ele><time>2009-04-13T06:40:39Z</time></trkpt>
<trkpt lat="50.83244470" lon="2.92140710"><ele>29.45752</ele><time>2009-04-13T06:40:58Z</time></trkpt>
<trkpt lat="50.83235430" lon="2.92148740"><ele>29.93811</ele><time>2009-04-13T06:41:00Z</time></trkpt>
<trkpt lat="50.83222220" lon="2.92176740"><ele>29.45752</ele><time>2009-04-13T06:41:04Z</time></trkpt>
<trkpt lat="50.83203250" lon="2.92203040"><ele>29.93811</ele><time>2009-04-13T06:41:10Z</time></trkpt>
<trkpt lat="50.83168820" lon="2.92196140"><ele>30.899536</ele><time>2009-04-13T06:41:16Z</time></trkpt>
<trkpt lat="50.83147390" lon="2.92189540"><ele>31.860718</ele><time>2009-04-13T06:41:20Z</time></trkpt>
<trkpt lat="50.83125110" lon="2.92163370"><ele>32.822266</ele><time>2009-04-13T06:41:26Z</time></trkpt>
<trkpt lat="50.83078300" lon="2.92180530"><ele>34.744873</ele><time>2009-04-13T06:41:39Z</time></trkpt>
<trkpt lat="50.83020860" lon="2.92201590"><ele>35.706055</ele><time>2009-04-13T06:41:51Z</time></trkpt>
<trkpt lat="50.83011250" lon="2.92205110"><ele>36.186768</ele><time>2009-04-13T06:41:53Z</time></trkpt>
<trkpt lat="50.82921140" lon="2.92234770"><ele>39.55127</ele><time>2009-04-13T06:42:12Z</time></trkpt>
<trkpt lat="50.82881950" lon="2.92247360"><ele>41.473999</ele><time>2009-04-13T06:42:25Z</time></trkpt>
<trkpt lat="50.82876210" lon="2.92249200"><ele>42.435425</ele><time>2009-04-13T06:42:40Z</time></trkpt>
<trkpt lat="50.82858180" lon="2.92207990"><ele>41.954712</ele><time>2009-04-13T06:42:53Z</time></trkpt>
<trkpt lat="50.82849060" lon="2.92157840"><ele>42.916016</ele><time>2009-04-13T06:43:00Z</time></trkpt>
<trkpt lat="50.82825440" lon="2.92027970"><ele>43.877319</ele><time>2009-04-13T06:43:17Z</time></trkpt>
<trkpt lat="50.82809280" lon="2.92013290"><ele>43.877319</ele><time>2009-04-13T06:43:24Z</time></trkpt>
<trkpt lat="50.82797300" lon="2.92027280"><ele>44.358032</ele><time>2009-04-13T06:43:27Z</time></trkpt>
<trkpt lat="50.82713100" lon="2.92089920"><ele>47.241821</ele><time>2009-04-13T06:43:45Z</time></trkpt>
<trkpt lat="50.82644190" lon="2.92126410"><ele>50.125977</ele><time>2009-04-13T06:43:59Z</time></trkpt>
<trkpt lat="50.82556850" lon="2.92172650"><ele>53.490479</ele><time>2009-04-13T06:44:16Z</time></trkpt>
<trkpt lat="50.82474190" lon="2.92237900"><ele>54.451782</ele><time>2009-04-13T06:44:32Z</time></trkpt>
<trkpt lat="50.82388510" lon="2.92313100"><ele>54.451782</ele><time>2009-04-13T06:44:47Z</time></trkpt>
<trkpt lat="50.82319890" lon="2.92373330"><ele>55.893799</ele><time>2009-04-13T06:44:59Z</time></trkpt>
<trkpt lat="50.82298470" lon="2.92370980"><ele>54.932373</ele><time>2009-04-13T06:45:03Z</time></trkpt>
<trkpt lat="50.82200890" lon="2.92273410"><ele>54.932373</ele><time>2009-04-13T06:45:20Z</time></trkpt>
<trkpt lat="50.82109140" lon="2.92182730"><ele>55.893799</ele><time>2009-04-13T06:45:36Z</time></trkpt>
<trkpt lat="50.82004810" lon="2.92085920"><ele>54.932373</ele><time>2009-04-13T06:45:54Z</time></trkpt>
<trkpt lat="50.81945550" lon="2.92023730"><ele>55.413086</ele><time>2009-04-13T06:46:05Z</time></trkpt>
<trkpt lat="50.81885270" lon="2.91968060"><ele>54.451782</ele><time>2009-04-13T06:46:17Z</time></trkpt>
<trkpt lat="50.81874770" lon="2.91958600"><ele>54.932373</ele><time>2009-04-13T06:46:19Z</time></trkpt>
<trkpt lat="50.81859410" lon="2.91944780"><ele>54.932373</ele><time>2009-04-13T06:46:22Z</time></trkpt>
<trkpt lat="50.81842700" lon="2.91929730"><ele>55.893799</ele><time>2009-04-13T06:46:26Z</time></trkpt>
<trkpt lat="50.81784450" lon="2.91909830"><ele>55.413086</ele><time>2009-04-13T06:46:35Z</time></trkpt>
<trkpt lat="50.81743150" lon="2.91904660"><ele>55.413086</ele><time>2009-04-13T06:46:42Z</time></trkpt>
<trkpt lat="50.81714910" lon="2.91881040"><ele>54.932373</ele><time>2009-04-13T06:46:48Z</time></trkpt>
<trkpt lat="50.81705400" lon="2.91867210"><ele>54.932373</ele><time>2009-04-13T06:46:50Z</time></trkpt>
<trkpt lat="50.81691260" lon="2.91846650"><ele>54.932373</ele><time>2009-04-13T06:46:53Z</time></trkpt>
<trkpt lat="50.81664850" lon="2.91766650"><ele>54.451782</ele><time>2009-04-13T06:47:02Z</time></trkpt>
<trkpt lat="50.81683030" lon="2.91707770"><ele>53.490479</ele><time>2009-04-13T06:47:11Z</time></trkpt>
<trkpt lat="50.81690180" lon="2.91697760"><ele>53.490479</ele><time>2009-04-13T06:47:13Z</time></trkpt>
<trkpt lat="50.81756430" lon="2.91613050"><ele>54.932373</ele><time>2009-04-13T06:47:29Z</time></trkpt>
<trkpt lat="50.81781860" lon="2.91582160"><ele>54.932373</ele><time>2009-04-13T06:47:35Z</time></trkpt>
<trkpt lat="50.81798570" lon="2.91561880"><ele>55.413086</ele><time>2009-04-13T06:47:39Z</time></trkpt>
<trkpt lat="50.81807490" lon="2.91551060"><ele>55.413086</ele><time>2009-04-13T06:47:41Z</time></trkpt>
<trkpt lat="50.81824540" lon="2.91530350"><ele>55.413086</ele><time>2009-04-13T06:47:45Z</time></trkpt>
<trkpt lat="50.81833450" lon="2.91519520"><ele>54.932373</ele><time>2009-04-13T06:47:47Z</time></trkpt>
<trkpt lat="50.81869990" lon="2.91484320"><ele>54.451782</ele><time>2009-04-13T06:47:56Z</time></trkpt>
<trkpt lat="50.81893010" lon="2.91480380"><ele>54.451782</ele><time>2009-04-13T06:48:03Z</time></trkpt>
<trkpt lat="50.81921440" lon="2.91388810"><ele>54.932373</ele><time>2009-04-13T06:48:18Z</time></trkpt>
<trkpt lat="50.81929910" lon="2.91348590"><ele>53.490479</ele><time>2009-04-13T06:48:30Z</time></trkpt>
<trkpt lat="50.81933520" lon="2.91331450"><ele>52.529175</ele><time>2009-04-13T06:48:33Z</time></trkpt>
<trkpt lat="50.81942130" lon="2.91305430"><ele>51.087158</ele><time>2009-04-13T06:48:37Z</time></trkpt>
<trkpt lat="50.81948460" lon="2.91291700"><ele>50.606567</ele><time>2009-04-13T06:48:39Z</time></trkpt>
<trkpt lat="50.81961090" lon="2.91264350"><ele>49.164551</ele><time>2009-04-13T06:48:43Z</time></trkpt>
<trkpt lat="50.82002600" lon="2.91200220"><ele>47.722534</ele><time>2009-04-13T06:48:54Z</time></trkpt>
<trkpt lat="50.82029830" lon="2.91158580"><ele>47.722534</ele><time>2009-04-13T06:49:04Z</time></trkpt>
<trkpt lat="50.82039610" lon="2.91143730"><ele>46.76123</ele><time>2009-04-13T06:49:07Z</time></trkpt>
<trkpt lat="50.82097220" lon="2.91057320"><ele>45.319214</ele><time>2009-04-13T06:49:18Z</time></trkpt>
<trkpt lat="50.82103540" lon="2.91047850"><ele>46.28064</ele><time>2009-04-13T06:49:20Z</time></trkpt>
<trkpt lat="50.82095980" lon="2.91034350"><ele>45.319214</ele><time>2009-04-13T06:49:25Z</time></trkpt>
<trkpt lat="50.82045330" lon="2.90947950"><ele>42.435425</ele><time>2009-04-13T06:49:38Z</time></trkpt>
<trkpt lat="50.82041020" lon="2.90940590"><ele>42.435425</ele><time>2009-04-13T06:49:39Z</time></trkpt>
<trkpt lat="50.81988620" lon="2.90816480"><ele>39.070679</ele><time>2009-04-13T06:49:52Z</time></trkpt>
<trkpt lat="50.81936380" lon="2.90680420"><ele>36.186768</ele><time>2009-04-13T06:50:05Z</time></trkpt>
<trkpt lat="50.81939720" lon="2.90636130"><ele>35.225464</ele><time>2009-04-13T06:50:10Z</time></trkpt>
<trkpt lat="50.81952350" lon="2.90622550"><ele>35.225464</ele><time>2009-04-13T06:50:12Z</time></trkpt>
<trkpt lat="50.82034340" lon="2.90573350"><ele>33.302856</ele><time>2009-04-13T06:50:23Z</time></trkpt>
<trkpt lat="50.82071390" lon="2.90551130"><ele>32.822266</ele><time>2009-04-13T06:50:28Z</time></trkpt>
<trkpt lat="50.82131550" lon="2.90534640"><ele>33.302856</ele><time>2009-04-13T06:50:36Z</time></trkpt>
<trkpt lat="50.82168740" lon="2.90524940"><ele>33.302856</ele><time>2009-04-13T06:50:41Z</time></trkpt>
<trkpt lat="50.82233720" lon="2.90438150"><ele>36.66748</ele><time>2009-04-13T06:50:54Z</time></trkpt>
<trkpt lat="50.82238740" lon="2.90432060"><ele>37.628662</ele><time>2009-04-13T06:50:56Z</time></trkpt>
<trkpt lat="50.82207240" lon="2.90351850"><ele>34.26416</ele><time>2009-04-13T06:51:06Z</time></trkpt>
<trkpt lat="50.82203790" lon="2.90342290"><ele>34.26416</ele><time>2009-04-13T06:51:07Z</time></trkpt>
<trkpt lat="50.82136680" lon="2.90218120"><ele>30.899536</ele><time>2009-04-13T06:51:21Z</time></trkpt>
<trkpt lat="50.82037060" lon="2.90042330"><ele>28.015503</ele><time>2009-04-13T06:51:40Z</time></trkpt>
<trkpt lat="50.81988740" lon="2.89957050"><ele>27.534912</ele><time>2009-04-13T06:51:49Z</time></trkpt>
<trkpt lat="50.81952130" lon="2.89918620"><ele>28.015503</ele><time>2009-04-13T06:51:55Z</time></trkpt>
<trkpt lat="50.81925780" lon="2.89897560"><ele>27.534912</ele><time>2009-04-13T06:51:59Z</time></trkpt>
<trkpt lat="50.81885920" lon="2.89884010"><ele>28.496216</ele><time>2009-04-13T06:52:05Z</time></trkpt>
<trkpt lat="50.81867510" lon="2.89981250"><ele>28.015503</ele><time>2009-04-13T06:52:09Z</time></trkpt>
<trkpt lat="50.81851450" lon="2.89987250"><ele>28.976929</ele><time>2009-04-13T06:52:13Z</time></trkpt>
<trkpt lat="50.81810670" lon="2.89946790"><ele>28.496216</ele><time>2009-04-13T06:52:20Z</time></trkpt>
<trkpt lat="50.81788590" lon="2.89949400"><ele>29.93811</ele><time>2009-04-13T06:52:24Z</time></trkpt>
<trkpt lat="50.81747870" lon="2.90025680"><ele>31.860718</ele><time>2009-04-13T06:52:34Z</time></trkpt>
<trkpt lat="50.81734470" lon="2.90031140"><ele>32.341553</ele><time>2009-04-13T06:52:38Z</time></trkpt>
<trkpt lat="50.81725690" lon="2.90020340"><ele>31.380127</ele><time>2009-04-13T06:52:40Z</time></trkpt>
<trkpt lat="50.81662280" lon="2.89945390"><ele>32.822266</ele><time>2009-04-13T06:52:53Z</time></trkpt>
<trkpt lat="50.81628790" lon="2.89908930"><ele>35.225464</ele><time>2009-04-13T06:53:02Z</time></trkpt>
<trkpt lat="50.81615510" lon="2.89926580"><ele>35.225464</ele><time>2009-04-13T06:53:07Z</time></trkpt>
<trkpt lat="50.81577820" lon="2.90036180"><ele>37.148071</ele><time>2009-04-13T06:53:20Z</time></trkpt>
<trkpt lat="50.81523320" lon="2.90183040"><ele>38.590088</ele><time>2009-04-13T06:53:36Z</time></trkpt>
<trkpt lat="50.81472750" lon="2.90319310"><ele>38.109375</ele><time>2009-04-13T06:53:50Z</time></trkpt>
<trkpt lat="50.81455900" lon="2.90373840"><ele>38.590088</ele><time>2009-04-13T06:53:55Z</time></trkpt>
<trkpt lat="50.81459150" lon="2.90523330"><ele>40.993408</ele><time>2009-04-13T06:54:08Z</time></trkpt>
<trkpt lat="50.81448480" lon="2.90673080"><ele>41.473999</ele><time>2009-04-13T06:54:21Z</time></trkpt>
<trkpt lat="50.81440510" lon="2.90704950"><ele>42.435425</ele><time>2009-04-13T06:54:24Z</time></trkpt>
<trkpt lat="50.81418520" lon="2.90738810"><ele>42.435425</ele><time>2009-04-13T06:54:29Z</time></trkpt>
<trkpt lat="50.81352590" lon="2.90775730"><ele>45.799927</ele><time>2009-04-13T06:54:40Z</time></trkpt>
<trkpt lat="50.81311920" lon="2.90792600"><ele>49.164551</ele><time>2009-04-13T06:54:48Z</time></trkpt>
<trkpt lat="50.81284210" lon="2.90797210"><ele>50.606567</ele><time>2009-04-13T06:54:54Z</time></trkpt>
<trkpt lat="50.81270380" lon="2.90799530"><ele>50.125977</ele><time>2009-04-13T06:54:57Z</time></trkpt>
<trkpt lat="50.81190400" lon="2.90811040"><ele>50.606567</ele><time>2009-04-13T06:55:12Z</time></trkpt>
<trkpt lat="50.81156050" lon="2.90815740"><ele>51.087158</ele><time>2009-04-13T06:55:18Z</time></trkpt>
<trkpt lat="50.81107010" lon="2.90848030"><ele>53.490479</ele><time>2009-04-13T06:55:28Z</time></trkpt>
<trkpt lat="50.81095120" lon="2.90855950"><ele>55.413086</ele><time>2009-04-13T06:55:31Z</time></trkpt>
<trkpt lat="50.81055500" lon="2.90882370"><ele>57.816528</ele><time>2009-04-13T06:55:41Z</time></trkpt>
<trkpt lat="50.81026090" lon="2.90901970"><ele>57.816528</ele><time>2009-04-13T06:55:48Z</time></trkpt>
<trkpt lat="50.81008000" lon="2.90914030"><ele>58.297119</ele><time>2009-04-13T06:55:52Z</time></trkpt>
<trkpt lat="50.80950410" lon="2.90952420"><ele>58.77771</ele><time>2009-04-13T06:56:04Z</time></trkpt>
<trkpt lat="50.80866870" lon="2.91008120"><ele>59.739136</ele><time>2009-04-13T06:56:20Z</time></trkpt>
<trkpt lat="50.80833690" lon="2.91030250"><ele>59.258423</ele><time>2009-04-13T06:56:26Z</time></trkpt>
<trkpt lat="50.80737050" lon="2.91094670"><ele>58.77771</ele><time>2009-04-13T06:56:43Z</time></trkpt>
<trkpt lat="50.80731740" lon="2.91098220"><ele>58.77771</ele><time>2009-04-13T06:56:44Z</time></trkpt>
<trkpt lat="50.80722460" lon="2.91120300"><ele>58.297119</ele><time>2009-04-13T06:56:48Z</time></trkpt>
<trkpt lat="50.80772080" lon="2.91248500"><ele>55.413086</ele><time>2009-04-13T06:57:02Z</time></trkpt>
<trkpt lat="50.80820560" lon="2.91373730"><ele>55.413086</ele><time>2009-04-13T06:57:15Z</time></trkpt>
<trkpt lat="50.80820560" lon="2.91412350"><ele>56.855103</ele><time>2009-04-13T06:57:19Z</time></trkpt>
<trkpt lat="50.80880000" lon="2.91474970"><ele>56.374512</ele><time>2009-04-13T06:57:28Z</time></trkpt>
<trkpt lat="50.80986910" lon="2.91587610"><ele>56.855103</ele><time>2009-04-13T06:57:45Z</time></trkpt>
<trkpt lat="50.81072020" lon="2.91676700"><ele>53.009766</ele><time>2009-04-13T06:57:57Z</time></trkpt>
<trkpt lat="50.81143770" lon="2.91750510"><ele>49.645264</ele><time>2009-04-13T06:58:07Z</time></trkpt>
<trkpt lat="50.81231860" lon="2.91843290"><ele>50.606567</ele><time>2009-04-13T06:58:20Z</time></trkpt>
<trkpt lat="50.81241820" lon="2.91850770"><ele>47.722534</ele><time>2009-04-13T06:58:25Z</time></trkpt>
<trkpt lat="50.81257410" lon="2.91852260"><ele>44.838623</ele><time>2009-04-13T06:58:29Z</time></trkpt>
<trkpt lat="50.81251000" lon="2.91877950"><ele>39.55127</ele><time>2009-04-13T06:58:32Z</time></trkpt>
<trkpt lat="50.81229680" lon="2.91955970"><ele>38.109375</ele><time>2009-04-13T06:58:40Z</time></trkpt>
<trkpt lat="50.81194780" lon="2.92080610"><ele>38.590088</ele><time>2009-04-13T06:58:50Z</time></trkpt>
<trkpt lat="50.81152650" lon="2.92262970"><ele>37.148071</ele><time>2009-04-13T06:59:03Z</time></trkpt>
<trkpt lat="50.81133670" lon="2.92423050"><ele>36.66748</ele><time>2009-04-13T06:59:16Z</time></trkpt>
<trkpt lat="50.81133360" lon="2.92434360"><ele>37.628662</ele><time>2009-04-13T06:59:17Z</time></trkpt>
<trkpt lat="50.81130480" lon="2.92537590"><ele>37.148071</ele><time>2009-04-13T06:59:26Z</time></trkpt>
<trkpt lat="50.81130090" lon="2.92575290"><ele>37.148071</ele><time>2009-04-13T06:59:29Z</time></trkpt>
<trkpt lat="50.81132630" lon="2.92595210"><ele>38.109375</ele><time>2009-04-13T06:59:31Z</time></trkpt>
<trkpt lat="50.81135980" lon="2.92621440"><ele>38.590088</ele><time>2009-04-13T06:59:33Z</time></trkpt>
<trkpt lat="50.81152130" lon="2.92747970"><ele>38.109375</ele><time>2009-04-13T06:59:46Z</time></trkpt>
<trkpt lat="50.81158720" lon="2.92799580"><ele>38.109375</ele><time>2009-04-13T06:59:51Z</time></trkpt>
<trkpt lat="50.81162940" lon="2.92832630"><ele>38.109375</ele><time>2009-04-13T06:59:54Z</time></trkpt>
<trkpt lat="50.81168680" lon="2.92877590"><ele>38.109375</ele><time>2009-04-13T06:59:59Z</time></trkpt>
<trkpt lat="50.81171020" lon="2.92895970"><ele>38.109375</ele><time>2009-04-13T07:00:01Z</time></trkpt>
<trkpt lat="50.81177130" lon="2.92943760"><ele>38.109375</ele><time>2009-04-13T07:00:06Z</time></trkpt>
<trkpt lat="50.81188340" lon="2.93017790"><ele>38.109375</ele><time>2009-04-13T07:00:14Z</time></trkpt>
<trkpt lat="50.81193710" lon="2.93049690"><ele>38.590088</ele><time>2009-04-13T07:00:17Z</time></trkpt>
<trkpt lat="50.81214630" lon="2.93173860"><ele>38.109375</ele><time>2009-04-13T07:00:24Z</time></trkpt>
<trkpt lat="50.81223780" lon="2.93228210"><ele>36.66748</ele><time>2009-04-13T07:00:29Z</time></trkpt>
<trkpt lat="50.81225470" lon="2.93238200"><ele>36.186768</ele><time>2009-04-13T07:00:30Z</time></trkpt>
<trkpt lat="50.81250530" lon="2.93387850"><ele>37.628662</ele><time>2009-04-13T07:00:43Z</time></trkpt>
<trkpt lat="50.81270380" lon="2.93521920"><ele>38.109375</ele><time>2009-04-13T07:00:55Z</time></trkpt>
<trkpt lat="50.81281730" lon="2.93585530"><ele>38.109375</ele><time>2009-04-13T07:01:02Z</time></trkpt>
<trkpt lat="50.81287050" lon="2.93623780"><ele>37.148071</ele><time>2009-04-13T07:01:09Z</time></trkpt>
<trkpt lat="50.81262680" lon="2.93640830"><ele>35.225464</ele><time>2009-04-13T07:01:13Z</time></trkpt>
<trkpt lat="50.81150410" lon="2.93713180"><ele>35.225464</ele><time>2009-04-13T07:01:29Z</time></trkpt>
<trkpt lat="50.81044320" lon="2.93765350"><ele>36.66748</ele><time>2009-04-13T07:01:43Z</time></trkpt>
<trkpt lat="50.81031740" lon="2.93769550"><ele>37.628662</ele><time>2009-04-13T07:01:45Z</time></trkpt>
<trkpt lat="50.81018560" lon="2.93763440"><ele>39.55127</ele><time>2009-04-13T07:01:48Z</time></trkpt>
<trkpt lat="50.81011880" lon="2.93746830"><ele>39.55127</ele><time>2009-04-13T07:01:51Z</time></trkpt>
<trkpt lat="50.80979710" lon="2.93667850"><ele>42.916016</ele><time>2009-04-13T07:02:01Z</time></trkpt>
<trkpt lat="50.80974490" lon="2.93655050"><ele>43.396606</ele><time>2009-04-13T07:02:03Z</time></trkpt>
<trkpt lat="50.80963190" lon="2.93645030"><ele>44.838623</ele><time>2009-04-13T07:02:07Z</time></trkpt>
<trkpt lat="50.80950560" lon="2.93653610"><ele>44.358032</ele><time>2009-04-13T07:02:10Z</time></trkpt>
<trkpt lat="50.80894720" lon="2.93702250"><ele>43.396606</ele><time>2009-04-13T07:02:21Z</time></trkpt>
<trkpt lat="50.80881040" lon="2.93696900"><ele>44.358032</ele><time>2009-04-13T07:02:26Z</time></trkpt>
<trkpt lat="50.80871720" lon="2.93679000"><ele>45.319214</ele><time>2009-04-13T07:02:37Z</time></trkpt>
<trkpt lat="50.80840930" lon="2.93702820"><ele>45.319214</ele><time>2009-04-13T07:02:48Z</time></trkpt>
<trkpt lat="50.80785680" lon="2.93745950"><ele>45.799927</ele><time>2009-04-13T07:03:02Z</time></trkpt>
<trkpt lat="50.80774540" lon="2.93754370"><ele>46.28064</ele><time>2009-04-13T07:03:07Z</time></trkpt>
<trkpt lat="50.80773230" lon="2.93764660"><ele>45.799927</ele><time>2009-04-13T07:03:11Z</time></trkpt>
<trkpt lat="50.80774180" lon="2.93798580"><ele>44.838623</ele><time>2009-04-13T07:03:19Z</time></trkpt>
<trkpt lat="50.80768300" lon="2.93822570"><ele>43.877319</ele><time>2009-04-13T07:03:25Z</time></trkpt>
<trkpt lat="50.80773600" lon="2.93845850"><ele>42.435425</ele><time>2009-04-13T07:03:28Z</time></trkpt>
<trkpt lat="50.80785300" lon="2.93897350"><ele>42.435425</ele><time>2009-04-13T07:03:35Z</time></trkpt>
<trkpt lat="50.80775700" lon="2.93904380"><ele>40.993408</ele><time>2009-04-13T07:03:39Z</time></trkpt>
<trkpt lat="50.80711260" lon="2.93922280"><ele>42.435425</ele><time>2009-04-13T07:03:49Z</time></trkpt>
<trkpt lat="50.80680460" lon="2.93901860"><ele>43.396606</ele><time>2009-04-13T07:03:54Z</time></trkpt>
<trkpt lat="50.80645700" lon="2.93861760"><ele>43.877319</ele><time>2009-04-13T07:04:01Z</time></trkpt>
<trkpt lat="50.80607010" lon="2.93867140"><ele>41.473999</ele><time>2009-04-13T07:04:08Z</time></trkpt>
<trkpt lat="50.80546810" lon="2.93919500"><ele>39.55127</ele><time>2009-04-13T07:04:17Z</time></trkpt>
<trkpt lat="50.80530450" lon="2.93962870"><ele>36.66748</ele><time>2009-04-13T07:04:21Z</time></trkpt>
<trkpt lat="50.80527990" lon="2.93993050"><ele>35.225464</ele><time>2009-04-13T07:04:23Z</time></trkpt>
<trkpt lat="50.80524010" lon="2.94041710"><ele>31.860718</ele><time>2009-04-13T07:04:26Z</time></trkpt>
<trkpt lat="50.80504540" lon="2.94279870"><ele>29.45752</ele><time>2009-04-13T07:04:41Z</time></trkpt>
<trkpt lat="50.80488710" lon="2.94473420"><ele>27.534912</ele><time>2009-04-13T07:04:54Z</time></trkpt>
<trkpt lat="50.80476630" lon="2.94663470"><ele>28.015503</ele><time>2009-04-13T07:05:08Z</time></trkpt>
<trkpt lat="50.80453820" lon="2.94682400"><ele>27.054321</ele><time>2009-04-13T07:05:15Z</time></trkpt>
<trkpt lat="50.80353860" lon="2.94791870"><ele>26.573608</ele><time>2009-04-13T07:05:30Z</time></trkpt>
<trkpt lat="50.80254100" lon="2.94901140"><ele>25.612305</ele><time>2009-04-13T07:05:45Z</time></trkpt>
<trkpt lat="50.80159450" lon="2.95012120"><ele>24.651001</ele><time>2009-04-13T07:05:59Z</time></trkpt>
<trkpt lat="50.80066870" lon="2.95115810"><ele>24.170288</ele><time>2009-04-13T07:06:12Z</time></trkpt>
<trkpt lat="50.80051860" lon="2.95132030"><ele>23.689575</ele><time>2009-04-13T07:06:14Z</time></trkpt>
<trkpt lat="50.79993510" lon="2.95195110"><ele>24.651001</ele><time>2009-04-13T07:06:22Z</time></trkpt>
<trkpt lat="50.79970260" lon="2.95213400"><ele>25.612305</ele><time>2009-04-13T07:06:26Z</time></trkpt>
<trkpt lat="50.79951590" lon="2.95234380"><ele>26.092896</ele><time>2009-04-13T07:06:31Z</time></trkpt>
<trkpt lat="50.79947420" lon="2.95241690"><ele>26.092896</ele><time>2009-04-13T07:06:32Z</time></trkpt>
<trkpt lat="50.79939500" lon="2.95254700"><ele>26.573608</ele><time>2009-04-13T07:06:34Z</time></trkpt>
<trkpt lat="50.79917850" lon="2.95278600"><ele>25.131714</ele><time>2009-04-13T07:06:38Z</time></trkpt>
<trkpt lat="50.79839170" lon="2.95365480"><ele>28.496216</ele><time>2009-04-13T07:06:50Z</time></trkpt>
<trkpt lat="50.79822430" lon="2.95383980"><ele>31.380127</ele><time>2009-04-13T07:06:53Z</time></trkpt>
<trkpt lat="50.79816680" lon="2.95390310"><ele>27.534912</ele><time>2009-04-13T07:06:54Z</time></trkpt>
<trkpt lat="50.79805100" lon="2.95403100"><ele>25.612305</ele><time>2009-04-13T07:06:56Z</time></trkpt>
<trkpt lat="50.79739390" lon="2.95475650"><ele>27.534912</ele><time>2009-04-13T07:07:08Z</time></trkpt>
<trkpt lat="50.79736990" lon="2.95478300"><ele>28.015503</ele><time>2009-04-13T07:07:11Z</time></trkpt>
<trkpt lat="50.79734640" lon="2.95479310"><ele>27.534912</ele><time>2009-04-13T07:07:16Z</time></trkpt>
<trkpt lat="50.79734640" lon="2.95479310"><ele>28.015503</ele><time>2009-04-13T07:07:22Z</time></trkpt>
<trkpt lat="50.79735400" lon="2.95485230"><ele>27.534912</ele><time>2009-04-13T07:07:25Z</time></trkpt>
<trkpt lat="50.79716960" lon="2.95500780"><ele>24.170288</ele><time>2009-04-13T07:07:31Z</time></trkpt>
<trkpt lat="50.79704520" lon="2.95514740"><ele>23.208984</ele><time>2009-04-13T07:07:33Z</time></trkpt>
<trkpt lat="50.79631530" lon="2.95596730"><ele>22.728271</ele><time>2009-04-13T07:07:45Z</time></trkpt>
<trkpt lat="50.79559600" lon="2.95677530"><ele>22.728271</ele><time>2009-04-13T07:07:58Z</time></trkpt>
<trkpt lat="50.79480570" lon="2.95766300"><ele>23.208984</ele><time>2009-04-13T07:08:13Z</time></trkpt>
<trkpt lat="50.79470500" lon="2.95777620"><ele>23.208984</ele><time>2009-04-13T07:08:15Z</time></trkpt>
<trkpt lat="50.79412700" lon="2.95842640"><ele>24.651001</ele><time>2009-04-13T07:08:28Z</time></trkpt>
<trkpt lat="50.79391500" lon="2.95866710"><ele>24.651001</ele><time>2009-04-13T07:08:33Z</time></trkpt>
<trkpt lat="50.79376190" lon="2.95884110"><ele>24.170288</ele><time>2009-04-13T07:08:37Z</time></trkpt>
<trkpt lat="50.79346070" lon="2.95918310"><ele>24.170288</ele><time>2009-04-13T07:08:44Z</time></trkpt>
<trkpt lat="50.79337680" lon="2.95927840"><ele>24.651001</ele><time>2009-04-13T07:08:46Z</time></trkpt>
<trkpt lat="50.79285910" lon="2.95986630"><ele>23.689575</ele><time>2009-04-13T07:08:59Z</time></trkpt>
<trkpt lat="50.79271660" lon="2.96002800"><ele>24.170288</ele><time>2009-04-13T07:09:03Z</time></trkpt>
<trkpt lat="50.79258240" lon="2.96018040"><ele>23.689575</ele><time>2009-04-13T07:09:06Z</time></trkpt>
<trkpt lat="50.79233430" lon="2.96046210"><ele>24.170288</ele><time>2009-04-13T07:09:12Z</time></trkpt>
<trkpt lat="50.79225280" lon="2.96055480"><ele>24.170288</ele><time>2009-04-13T07:09:14Z</time></trkpt>
<trkpt lat="50.79205500" lon="2.96077930"><ele>24.170288</ele><time>2009-04-13T07:09:19Z</time></trkpt>
<trkpt lat="50.79195070" lon="2.96089760"><ele>24.170288</ele><time>2009-04-13T07:09:22Z</time></trkpt>
<trkpt lat="50.79181780" lon="2.96104860"><ele>23.689575</ele><time>2009-04-13T07:09:25Z</time></trkpt>
<trkpt lat="50.79148610" lon="2.96142690"><ele>23.689575</ele><time>2009-04-13T07:09:32Z</time></trkpt>
<trkpt lat="50.79117370" lon="2.96154500"><ele>24.651001</ele><time>2009-04-13T07:09:41Z</time></trkpt>
<trkpt lat="50.79110970" lon="2.96183630"><ele>24.651001</ele><time>2009-04-13T07:09:44Z</time></trkpt>
<trkpt lat="50.79064500" lon="2.96233190"><ele>24.651001</ele><time>2009-04-13T07:09:55Z</time></trkpt>
<trkpt lat="50.79046500" lon="2.96252400"><ele>24.170288</ele><time>2009-04-13T07:09:59Z</time></trkpt>
<trkpt lat="50.79033510" lon="2.96266250"><ele>24.170288</ele><time>2009-04-13T07:10:02Z</time></trkpt>
<trkpt lat="50.79024440" lon="2.96275920"><ele>24.170288</ele><time>2009-04-13T07:10:04Z</time></trkpt>
<trkpt lat="50.78963080" lon="2.96341380"><ele>23.689575</ele><time>2009-04-13T07:10:17Z</time></trkpt>
<trkpt lat="50.78902950" lon="2.96405510"><ele>23.689575</ele><time>2009-04-13T07:10:29Z</time></trkpt>
<trkpt lat="50.78847010" lon="2.96465180"><ele>23.689575</ele><time>2009-04-13T07:10:41Z</time></trkpt>
<trkpt lat="50.78837800" lon="2.96475000"><ele>23.689575</ele><time>2009-04-13T07:10:43Z</time></trkpt>
<trkpt lat="50.78770600" lon="2.96546680"><ele>24.170288</ele><time>2009-04-13T07:10:57Z</time></trkpt>
<trkpt lat="50.78710320" lon="2.96610980"><ele>24.651001</ele><time>2009-04-13T07:11:10Z</time></trkpt>
<trkpt lat="50.78694870" lon="2.96627460"><ele>25.131714</ele><time>2009-04-13T07:11:17Z</time></trkpt>
<trkpt lat="50.78687120" lon="2.96658570"><ele>23.689575</ele><time>2009-04-13T07:11:22Z</time></trkpt>
<trkpt lat="50.78683760" lon="2.96803160"><ele>22.247559</ele><time>2009-04-13T07:11:37Z</time></trkpt>
<trkpt lat="50.78683520" lon="2.96813780"><ele>21.766968</ele><time>2009-04-13T07:11:38Z</time></trkpt>
<trkpt lat="50.78686230" lon="2.96835390"><ele>21.286377</ele><time>2009-04-13T07:11:40Z</time></trkpt>
<trkpt lat="50.78721770" lon="2.96938930"><ele>21.286377</ele><time>2009-04-13T07:11:52Z</time></trkpt>
<trkpt lat="50.78743460" lon="2.96991350"><ele>23.208984</ele><time>2009-04-13T07:12:01Z</time></trkpt>
<trkpt lat="50.78777040" lon="2.96973890"><ele>20.324951</ele><time>2009-04-13T07:12:09Z</time></trkpt>
<trkpt lat="50.78790390" lon="2.96966960"><ele>22.247559</ele><time>2009-04-13T07:12:11Z</time></trkpt>
<trkpt lat="50.78832990" lon="2.96944800"><ele>19.84436</ele><time>2009-04-13T07:12:17Z</time></trkpt>
<trkpt lat="50.78933420" lon="2.96871680"><ele>20.324951</ele><time>2009-04-13T07:12:32Z</time></trkpt>
<trkpt lat="50.78945160" lon="2.96862600"><ele>21.286377</ele><time>2009-04-13T07:12:34Z</time></trkpt>
<trkpt lat="50.78973610" lon="2.96840470"><ele>21.766968</ele><time>2009-04-13T07:12:39Z</time></trkpt>
<trkpt lat="50.78990750" lon="2.96851520"><ele>22.728271</ele><time>2009-04-13T07:12:43Z</time></trkpt>
<trkpt lat="50.79038330" lon="2.97007500"><ele>22.247559</ele><time>2009-04-13T07:12:59Z</time></trkpt>
<trkpt lat="50.79084970" lon="2.97157050"><ele>20.324951</ele><time>2009-04-13T07:13:13Z</time></trkpt>
<trkpt lat="50.79108240" lon="2.97231670"><ele>20.805664</ele><time>2009-04-13T07:13:20Z</time></trkpt>
<trkpt lat="50.79099340" lon="2.97257730"><ele>22.728271</ele><time>2009-04-13T07:13:24Z</time></trkpt>
<trkpt lat="50.79093860" lon="2.97263200"><ele>23.208984</ele><time>2009-04-13T07:13:25Z</time></trkpt>
<trkpt lat="50.79089120" lon="2.97319960"><ele>22.247559</ele><time>2009-04-13T07:13:32Z</time></trkpt>
<trkpt lat="50.79164250" lon="2.97484530"><ele>22.728271</ele><time>2009-04-13T07:13:50Z</time></trkpt>
<trkpt lat="50.79167410" lon="2.97491470"><ele>23.208984</ele><time>2009-04-13T07:13:51Z</time></trkpt>
<trkpt lat="50.79156310" lon="2.97512660"><ele>23.208984</ele><time>2009-04-13T07:13:56Z</time></trkpt>
<trkpt lat="50.79076610" lon="2.97611680"><ele>22.247559</ele><time>2009-04-13T07:14:11Z</time></trkpt>
<trkpt lat="50.79048190" lon="2.97646990"><ele>22.728271</ele><time>2009-04-13T07:14:16Z</time></trkpt>
<trkpt lat="50.79019250" lon="2.97715400"><ele>23.208984</ele><time>2009-04-13T07:14:24Z</time></trkpt>
<trkpt lat="50.79015400" lon="2.97724830"><ele>22.728271</ele><time>2009-04-13T07:14:25Z</time></trkpt>
<trkpt lat="50.78992610" lon="2.97780790"><ele>23.689575</ele><time>2009-04-13T07:14:31Z</time></trkpt>
<trkpt lat="50.78988190" lon="2.97826700"><ele>23.689575</ele><time>2009-04-13T07:14:35Z</time></trkpt>
<trkpt lat="50.78972950" lon="2.97940000"><ele>21.286377</ele><time>2009-04-13T07:14:45Z</time></trkpt>
<trkpt lat="50.78968010" lon="2.97949860"><ele>21.766968</ele><time>2009-04-13T07:14:46Z</time></trkpt>
<trkpt lat="50.78900340" lon="2.98098980"><ele>19.36377</ele><time>2009-04-13T07:15:00Z</time></trkpt>
<trkpt lat="50.78881020" lon="2.98171630"><ele>19.36377</ele><time>2009-04-13T07:15:06Z</time></trkpt>
<trkpt lat="50.78855930" lon="2.98254840"><ele>19.84436</ele><time>2009-04-13T07:15:13Z</time></trkpt>
<trkpt lat="50.78831090" lon="2.98393090"><ele>20.324951</ele><time>2009-04-13T07:15:24Z</time></trkpt>
<trkpt lat="50.78827460" lon="2.98406000"><ele>19.84436</ele><time>2009-04-13T07:15:25Z</time></trkpt>
<trkpt lat="50.78804020" lon="2.98441170"><ele>20.324951</ele><time>2009-04-13T07:15:29Z</time></trkpt>
<trkpt lat="50.78781550" lon="2.98474870"><ele>20.324951</ele><time>2009-04-13T07:15:33Z</time></trkpt>
<trkpt lat="50.78761200" lon="2.98584190"><ele>19.36377</ele><time>2009-04-13T07:15:42Z</time></trkpt>
<trkpt lat="50.78740600" lon="2.98637850"><ele>19.36377</ele><time>2009-04-13T07:15:47Z</time></trkpt>
<trkpt lat="50.78720010" lon="2.98759920"><ele>19.84436</ele><time>2009-04-13T07:15:57Z</time></trkpt>
<trkpt lat="50.78755020" lon="2.98900990"><ele>20.805664</ele><time>2009-04-13T07:16:10Z</time></trkpt>
<trkpt lat="50.78763880" lon="2.98958250"><ele>21.286377</ele><time>2009-04-13T07:16:16Z</time></trkpt>
<trkpt lat="50.78744750" lon="2.99034790"><ele>20.805664</ele><time>2009-04-13T07:16:24Z</time></trkpt>
<trkpt lat="50.78742270" lon="2.99091410"><ele>20.805664</ele><time>2009-04-13T07:16:29Z</time></trkpt>
<trkpt lat="50.78770250" lon="2.99144080"><ele>20.324951</ele><time>2009-04-13T07:16:35Z</time></trkpt>
<trkpt lat="50.78785640" lon="2.99153550"><ele>18.402344</ele><time>2009-04-13T07:16:37Z</time></trkpt>
<trkpt lat="50.78839440" lon="2.99226070"><ele>21.286377</ele><time>2009-04-13T07:16:46Z</time></trkpt>
<trkpt lat="50.78863530" lon="2.99352760"><ele>21.766968</ele><time>2009-04-13T07:16:57Z</time></trkpt>
<trkpt lat="50.78889790" lon="2.99384470"><ele>22.728271</ele><time>2009-04-13T07:17:03Z</time></trkpt>
<trkpt lat="50.78900950" lon="2.99385870"><ele>21.766968</ele><time>2009-04-13T07:17:05Z</time></trkpt>
<trkpt lat="50.78926850" lon="2.99373730"><ele>19.36377</ele><time>2009-04-13T07:17:09Z</time></trkpt>
<trkpt lat="50.78934020" lon="2.99370140"><ele>18.402344</ele><time>2009-04-13T07:17:10Z</time></trkpt>
<trkpt lat="50.79021930" lon="2.99270500"><ele>19.36377</ele><time>2009-04-13T07:17:23Z</time></trkpt>
<trkpt lat="50.79114960" lon="2.99161190"><ele>19.36377</ele><time>2009-04-13T07:17:37Z</time></trkpt>
<trkpt lat="50.79185230" lon="2.99074540"><ele>18.402344</ele><time>2009-04-13T07:17:48Z</time></trkpt>
<trkpt lat="50.79229340" lon="2.99016980"><ele>18.402344</ele><time>2009-04-13T07:17:55Z</time></trkpt>
<trkpt lat="50.79264270" lon="2.98985540"><ele>19.36377</ele><time>2009-04-13T07:18:00Z</time></trkpt>
<trkpt lat="50.79345780" lon="2.98912170"><ele>17.441162</ele><time>2009-04-13T07:18:11Z</time></trkpt>
<trkpt lat="50.79375460" lon="2.98918410"><ele>18.402344</ele><time>2009-04-13T07:18:15Z</time></trkpt>
<trkpt lat="50.79467080" lon="2.98966730"><ele>19.36377</ele><time>2009-04-13T07:18:27Z</time></trkpt>
<trkpt lat="50.79474390" lon="2.98969030"><ele>19.84436</ele><time>2009-04-13T07:18:28Z</time></trkpt>
<trkpt lat="50.79488520" lon="2.98973490"><ele>20.324951</ele><time>2009-04-13T07:18:30Z</time></trkpt>
<trkpt lat="50.79525800" lon="2.99069020"><ele>19.36377</ele><time>2009-04-13T07:18:39Z</time></trkpt>
<trkpt lat="50.79530740" lon="2.99079600"><ele>19.36377</ele><time>2009-04-13T07:18:40Z</time></trkpt>
<trkpt lat="50.79558220" lon="2.99106220"><ele>18.402344</ele><time>2009-04-13T07:18:44Z</time></trkpt>
<trkpt lat="50.79586050" lon="2.99126460"><ele>19.36377</ele><time>2009-04-13T07:18:48Z</time></trkpt>
<trkpt lat="50.79612680" lon="2.99126160"><ele>18.402344</ele><time>2009-04-13T07:18:52Z</time></trkpt>
<trkpt lat="50.79627450" lon="2.99124680"><ele>18.883057</ele><time>2009-04-13T07:18:54Z</time></trkpt>
<trkpt lat="50.79649620" lon="2.99146390"><ele>19.84436</ele><time>2009-04-13T07:18:58Z</time></trkpt>
<trkpt lat="50.79660890" lon="2.99177400"><ele>19.84436</ele><time>2009-04-13T07:19:01Z</time></trkpt>
<trkpt lat="50.79667390" lon="2.99221570"><ele>20.805664</ele><time>2009-04-13T07:19:05Z</time></trkpt>
<trkpt lat="50.79680400" lon="2.99261840"><ele>20.324951</ele><time>2009-04-13T07:19:09Z</time></trkpt>
<trkpt lat="50.79708030" lon="2.99310200"><ele>20.324951</ele><time>2009-04-13T07:19:15Z</time></trkpt>
<trkpt lat="50.79726330" lon="2.99340120"><ele>19.84436</ele><time>2009-04-13T07:19:19Z</time></trkpt>
<trkpt lat="50.79805760" lon="2.99450930"><ele>21.286377</ele><time>2009-04-13T07:19:37Z</time></trkpt>
<trkpt lat="50.79829740" lon="2.99500920"><ele>21.766968</ele><time>2009-04-13T07:19:45Z</time></trkpt>
<trkpt lat="50.79840250" lon="2.99545620"><ele>22.247559</ele><time>2009-04-13T07:19:51Z</time></trkpt>
<trkpt lat="50.79863450" lon="2.99539530"><ele>22.728271</ele><time>2009-04-13T07:19:58Z</time></trkpt>
<trkpt lat="50.79871800" lon="2.99534090"><ele>22.247559</ele><time>2009-04-13T07:20:00Z</time></trkpt>
<trkpt lat="50.79921960" lon="2.99501480"><ele>21.766968</ele><time>2009-04-13T07:20:11Z</time></trkpt>
<trkpt lat="50.79946440" lon="2.99518170"><ele>22.247559</ele><time>2009-04-13T07:20:17Z</time></trkpt>
<trkpt lat="50.80001880" lon="2.99579770"><ele>22.247559</ele><time>2009-04-13T07:20:30Z</time></trkpt>
<trkpt lat="50.80020520" lon="2.99569260"><ele>20.805664</ele><time>2009-04-13T07:20:35Z</time></trkpt>
<trkpt lat="50.80048620" lon="2.99543320"><ele>21.286377</ele><time>2009-04-13T07:20:41Z</time></trkpt>
<trkpt lat="50.80070150" lon="2.99557390"><ele>22.728271</ele><time>2009-04-13T07:20:47Z</time></trkpt>
<trkpt lat="50.80084310" lon="2.99596590"><ele>22.247559</ele><time>2009-04-13T07:20:52Z</time></trkpt>
<trkpt lat="50.80111590" lon="2.99672140"><ele>22.728271</ele><time>2009-04-13T07:21:01Z</time></trkpt>
<trkpt lat="50.80140360" lon="2.99665060"><ele>21.286377</ele><time>2009-04-13T07:21:07Z</time></trkpt>
<trkpt lat="50.80222590" lon="2.99586030"><ele>20.805664</ele><time>2009-04-13T07:21:21Z</time></trkpt>
<trkpt lat="50.80316790" lon="2.99471990"><ele>20.805664</ele><time>2009-04-13T07:21:38Z</time></trkpt>
<trkpt lat="50.80398930" lon="2.99342620"><ele>19.36377</ele><time>2009-04-13T07:21:55Z</time></trkpt>
<trkpt lat="50.80403760" lon="2.99335010"><ele>19.36377</ele><time>2009-04-13T07:21:56Z</time></trkpt>
<trkpt lat="50.80475810" lon="2.99221530"><ele>21.766968</ele><time>2009-04-13T07:22:12Z</time></trkpt>
<trkpt lat="50.80493190" lon="2.99231560"><ele>21.766968</ele><time>2009-04-13T07:22:17Z</time></trkpt>
<trkpt lat="50.80495690" lon="2.99259000"><ele>21.766968</ele><time>2009-04-13T07:22:20Z</time></trkpt>
<trkpt lat="50.80498150" lon="2.99303290"><ele>21.766968</ele><time>2009-04-13T07:22:24Z</time></trkpt>
<trkpt lat="50.80530320" lon="2.99349410"><ele>19.84436</ele><time>2009-04-13T07:22:30Z</time></trkpt>
<trkpt lat="50.80587500" lon="2.99381720"><ele>19.84436</ele><time>2009-04-13T07:22:38Z</time></trkpt>
<trkpt lat="50.80624610" lon="2.99437610"><ele>20.805664</ele><time>2009-04-13T07:22:45Z</time></trkpt>
<trkpt lat="50.80639050" lon="2.99480930"><ele>21.286377</ele><time>2009-04-13T07:22:49Z</time></trkpt>
<trkpt lat="50.80658640" lon="2.99516010"><ele>20.805664</ele><time>2009-04-13T07:22:53Z</time></trkpt>
<trkpt lat="50.80709460" lon="2.99582700"><ele>21.766968</ele><time>2009-04-13T07:23:02Z</time></trkpt>
<trkpt lat="50.80725420" lon="2.99641280"><ele>23.208984</ele><time>2009-04-13T07:23:08Z</time></trkpt>
<trkpt lat="50.80732600" lon="2.99705940"><ele>25.612305</ele><time>2009-04-13T07:23:15Z</time></trkpt>
<trkpt lat="50.80736670" lon="2.99736750"><ele>26.573608</ele><time>2009-04-13T07:23:21Z</time></trkpt>
<trkpt lat="50.80735150" lon="2.99735790"><ele>26.573608</ele><time>2009-04-13T07:23:37Z</time></trkpt>
<trkpt lat="50.80738220" lon="2.99729850"><ele>26.573608</ele><time>2009-04-13T07:27:53Z</time></trkpt>
<trkpt lat="50.80711010" lon="2.99756800"><ele>26.092896</ele><time>2009-04-13T07:28:04Z</time></trkpt>
<trkpt lat="50.80692510" lon="2.99772260"><ele>25.612305</ele><time>2009-04-13T07:28:09Z</time></trkpt>
<trkpt lat="50.80685320" lon="2.99795350"><ele>26.092896</ele><time>2009-04-13T07:28:13Z</time></trkpt>
<trkpt lat="50.80689530" lon="2.99833330"><ele>24.651001</ele><time>2009-04-13T07:28:18Z</time></trkpt>
<trkpt lat="50.80683290" lon="2.99859750"><ele>25.612305</ele><time>2009-04-13T07:28:23Z</time></trkpt>
<trkpt lat="50.80656650" lon="2.99878400"><ele>25.131714</ele><time>2009-04-13T07:28:29Z</time></trkpt>
<trkpt lat="50.80644840" lon="2.99891960"><ele>25.131714</ele><time>2009-04-13T07:28:32Z</time></trkpt>
<trkpt lat="50.80627590" lon="2.99953350"><ele>25.131714</ele><time>2009-04-13T07:28:40Z</time></trkpt>
<trkpt lat="50.80634870" lon="2.99993340"><ele>24.651001</ele><time>2009-04-13T07:28:45Z</time></trkpt>
<trkpt lat="50.80660530" lon="3.00077310"><ele>25.131714</ele><time>2009-04-13T07:28:56Z</time></trkpt>
<trkpt lat="50.80661770" lon="3.00081250"><ele>25.131714</ele><time>2009-04-13T07:28:58Z</time></trkpt>
<trkpt lat="50.80680190" lon="3.00180680"><ele>23.689575</ele><time>2009-04-13T07:29:10Z</time></trkpt>
<trkpt lat="50.80684780" lon="3.00204880"><ele>23.208984</ele><time>2009-04-13T07:29:13Z</time></trkpt>
<trkpt lat="50.80689530" lon="3.00228600"><ele>23.689575</ele><time>2009-04-13T07:29:16Z</time></trkpt>
<trkpt lat="50.80697570" lon="3.00250400"><ele>22.728271</ele><time>2009-04-13T07:29:19Z</time></trkpt>
<trkpt lat="50.80748650" lon="3.00342340"><ele>23.689575</ele><time>2009-04-13T07:29:35Z</time></trkpt>
<trkpt lat="50.80788730" lon="3.00414480"><ele>23.689575</ele><time>2009-04-13T07:29:48Z</time></trkpt>
<trkpt lat="50.80824210" lon="3.00488650"><ele>23.689575</ele><time>2009-04-13T07:30:01Z</time></trkpt>
<trkpt lat="50.80863720" lon="3.00576000"><ele>25.612305</ele><time>2009-04-13T07:30:17Z</time></trkpt>
<trkpt lat="50.80880060" lon="3.00612120"><ele>27.054321</ele><time>2009-04-13T07:30:24Z</time></trkpt>
<trkpt lat="50.80896640" lon="3.00599470"><ele>27.054321</ele><time>2009-04-13T07:30:30Z</time></trkpt>
<trkpt lat="50.80944990" lon="3.00557440"><ele>28.496216</ele><time>2009-04-13T07:30:45Z</time></trkpt>
<trkpt lat="50.80962500" lon="3.00542220"><ele>28.015503</ele><time>2009-04-13T07:30:51Z</time></trkpt>
<trkpt lat="50.81027300" lon="3.00468250"><ele>29.45752</ele><time>2009-04-13T07:31:08Z</time></trkpt>
<trkpt lat="50.81073330" lon="3.00411330"><ele>31.860718</ele><time>2009-04-13T07:31:22Z</time></trkpt>
<trkpt lat="50.81091700" lon="3.00388610"><ele>31.380127</ele><time>2009-04-13T07:31:32Z</time></trkpt>
<trkpt lat="50.81124070" lon="3.00348560"><ele>29.45752</ele><time>2009-04-13T07:31:41Z</time></trkpt>
<trkpt lat="50.81137790" lon="3.00331600"><ele>28.976929</ele><time>2009-04-13T07:31:44Z</time></trkpt>
<trkpt lat="50.81165290" lon="3.00314880"><ele>28.015503</ele><time>2009-04-13T07:31:49Z</time></trkpt>
<trkpt lat="50.81176130" lon="3.00309680"><ele>26.573608</ele><time>2009-04-13T07:31:51Z</time></trkpt>
<trkpt lat="50.81192340" lon="3.00301910"><ele>27.534912</ele><time>2009-04-13T07:31:54Z</time></trkpt>
<trkpt lat="50.81207320" lon="3.00294710"><ele>27.534912</ele><time>2009-04-13T07:31:57Z</time></trkpt>
<trkpt lat="50.81248540" lon="3.00274930"><ele>29.93811</ele><time>2009-04-13T07:32:08Z</time></trkpt>
<trkpt lat="50.81256740" lon="3.00312020"><ele>30.418823</ele><time>2009-04-13T07:32:14Z</time></trkpt>
<trkpt lat="50.81273490" lon="3.00391600"><ele>34.26416</ele><time>2009-04-13T07:32:25Z</time></trkpt>
<trkpt lat="50.81281570" lon="3.00429970"><ele>36.66748</ele><time>2009-04-13T07:32:31Z</time></trkpt>
<trkpt lat="50.81297110" lon="3.00503780"><ele>38.590088</ele><time>2009-04-13T07:32:42Z</time></trkpt>
<trkpt lat="50.81296970" lon="3.00532820"><ele>41.473999</ele><time>2009-04-13T07:32:47Z</time></trkpt>
<trkpt lat="50.81294360" lon="3.00538700"><ele>41.954712</ele><time>2009-04-13T07:32:49Z</time></trkpt>
<trkpt lat="50.81287370" lon="3.00554430"><ele>41.954712</ele><time>2009-04-13T07:32:54Z</time></trkpt>
<trkpt lat="50.81287920" lon="3.00573510"><ele>41.473999</ele><time>2009-04-13T07:32:58Z</time></trkpt>
<trkpt lat="50.81311480" lon="3.00644210"><ele>43.877319</ele><time>2009-04-13T07:33:13Z</time></trkpt>
<trkpt lat="50.81330910" lon="3.00702510"><ele>43.877319</ele><time>2009-04-13T07:33:24Z</time></trkpt>
<trkpt lat="50.81344740" lon="3.00723010"><ele>43.877319</ele><time>2009-04-13T07:33:28Z</time></trkpt>
<trkpt lat="50.81407220" lon="3.00813250"><ele>44.358032</ele><time>2009-04-13T07:33:44Z</time></trkpt>
<trkpt lat="50.81434330" lon="3.00836970"><ele>44.358032</ele><time>2009-04-13T07:33:50Z</time></trkpt>
<trkpt lat="50.81463820" lon="3.00861920"><ele>44.838623</ele><time>2009-04-13T07:33:56Z</time></trkpt>
<trkpt lat="50.81484730" lon="3.00875350"><ele>44.838623</ele><time>2009-04-13T07:34:03Z</time></trkpt>
<trkpt lat="50.81489240" lon="3.00870590"><ele>44.838623</ele><time>2009-04-13T07:34:04Z</time></trkpt>
<trkpt lat="50.81499290" lon="3.00860020"><ele>44.358032</ele><time>2009-04-13T07:34:06Z</time></trkpt>
<trkpt lat="50.81543710" lon="3.00813260"><ele>44.358032</ele><time>2009-04-13T07:34:15Z</time></trkpt>
<trkpt lat="50.81563650" lon="3.00827630"><ele>44.358032</ele><time>2009-04-13T07:34:21Z</time></trkpt>
<trkpt lat="50.81576310" lon="3.00870670"><ele>44.358032</ele><time>2009-04-13T07:34:26Z</time></trkpt>
<trkpt lat="50.81582180" lon="3.00887910"><ele>43.877319</ele><time>2009-04-13T07:34:28Z</time></trkpt>
<trkpt lat="50.81626870" lon="3.00979770"><ele>42.435425</ele><time>2009-04-13T07:34:41Z</time></trkpt>
<trkpt lat="50.81653860" lon="3.01035280"><ele>41.954712</ele><time>2009-04-13T07:34:49Z</time></trkpt>
<trkpt lat="50.81701490" lon="3.01135220"><ele>41.473999</ele><time>2009-04-13T07:35:03Z</time></trkpt>
<trkpt lat="50.81769270" lon="3.01232820"><ele>40.512817</ele><time>2009-04-13T07:35:18Z</time></trkpt>
<trkpt lat="50.81777800" lon="3.01245110"><ele>40.032104</ele><time>2009-04-13T07:35:20Z</time></trkpt>
<trkpt lat="50.81789800" lon="3.01247020"><ele>40.993408</ele><time>2009-04-13T07:35:24Z</time></trkpt>
<trkpt lat="50.81800770" lon="3.01216560"><ele>39.55127</ele><time>2009-04-13T07:35:28Z</time></trkpt>
<trkpt lat="50.81810560" lon="3.01189320"><ele>38.109375</ele><time>2009-04-13T07:35:31Z</time></trkpt>
<trkpt lat="50.81823620" lon="3.01153050"><ele>37.148071</ele><time>2009-04-13T07:35:35Z</time></trkpt>
<trkpt lat="50.81903770" lon="3.01102450"><ele>36.66748</ele><time>2009-04-13T07:35:49Z</time></trkpt>
<trkpt lat="50.81936920" lon="3.01079930"><ele>39.55127</ele><time>2009-04-13T07:35:58Z</time></trkpt>
<trkpt lat="50.81975310" lon="3.01036050"><ele>41.954712</ele><time>2009-04-13T07:36:11Z</time></trkpt>
<trkpt lat="50.82024850" lon="3.01000460"><ele>42.916016</ele><time>2009-04-13T07:36:26Z</time></trkpt>
<trkpt lat="50.82078450" lon="3.00973660"><ele>44.838623</ele><time>2009-04-13T07:36:41Z</time></trkpt>
<trkpt lat="50.82100110" lon="3.00962840"><ele>43.396606</ele><time>2009-04-13T07:36:46Z</time></trkpt>
<trkpt lat="50.82160020" lon="3.00932870"><ele>40.032104</ele><time>2009-04-13T07:36:57Z</time></trkpt>
<trkpt lat="50.82158850" lon="3.00903680"><ele>40.512817</ele><time>2009-04-13T07:37:01Z</time></trkpt>
<trkpt lat="50.82178550" lon="3.00864570"><ele>37.628662</ele><time>2009-04-13T07:37:06Z</time></trkpt>
<trkpt lat="50.82189580" lon="3.00848810"><ele>36.186768</ele><time>2009-04-13T07:37:08Z</time></trkpt>
<trkpt lat="50.82225210" lon="3.00797910"><ele>33.783447</ele><time>2009-04-13T07:37:14Z</time></trkpt>
<trkpt lat="50.82280990" lon="3.00779470"><ele>33.783447</ele><time>2009-04-13T07:37:21Z</time></trkpt>
<trkpt lat="50.82287720" lon="3.00772740"><ele>34.26416</ele><time>2009-04-13T07:37:22Z</time></trkpt>
<trkpt lat="50.82402650" lon="3.00655360"><ele>35.225464</ele><time>2009-04-13T07:37:40Z</time></trkpt>
<trkpt lat="50.82476610" lon="3.00584680"><ele>37.628662</ele><time>2009-04-13T07:37:53Z</time></trkpt>
<trkpt lat="50.82546500" lon="3.00517900"><ele>38.590088</ele><time>2009-04-13T07:38:06Z</time></trkpt>
<trkpt lat="50.82576560" lon="3.00499300"><ele>39.070679</ele><time>2009-04-13T07:38:11Z</time></trkpt>
<trkpt lat="50.82673630" lon="3.00449240"><ele>40.993408</ele><time>2009-04-13T07:38:27Z</time></trkpt>
<trkpt lat="50.82686290" lon="3.00442660"><ele>41.473999</ele><time>2009-04-13T07:38:29Z</time></trkpt>
<trkpt lat="50.82703930" lon="3.00433470"><ele>41.954712</ele><time>2009-04-13T07:38:32Z</time></trkpt>
<trkpt lat="50.82786440" lon="3.00341020"><ele>44.358032</ele><time>2009-04-13T07:38:48Z</time></trkpt>
<trkpt lat="50.82852550" lon="3.00253450"><ele>45.799927</ele><time>2009-04-13T07:39:02Z</time></trkpt>
<trkpt lat="50.82914000" lon="3.00108440"><ele>47.722534</ele><time>2009-04-13T07:39:19Z</time></trkpt>
<trkpt lat="50.82933190" lon="3.00063160"><ele>48.203369</ele><time>2009-04-13T07:39:24Z</time></trkpt>
<trkpt lat="50.82972660" lon="2.99937810"><ele>49.645264</ele><time>2009-04-13T07:39:38Z</time></trkpt>
<trkpt lat="50.82990700" lon="2.99879690"><ele>51.567871</ele><time>2009-04-13T07:39:45Z</time></trkpt>
<trkpt lat="50.82997110" lon="2.99859040"><ele>52.529175</ele><time>2009-04-13T07:39:48Z</time></trkpt>
<trkpt lat="50.83004110" lon="2.99836480"><ele>50.606567</ele><time>2009-04-13T07:39:51Z</time></trkpt>
<trkpt lat="50.83052370" lon="2.99701080"><ele>52.529175</ele><time>2009-04-13T07:40:08Z</time></trkpt>
<trkpt lat="50.83107000" lon="2.99576740"><ele>54.451782</ele><time>2009-04-13T07:40:24Z</time></trkpt>
<trkpt lat="50.83147500" lon="2.99532170"><ele>54.451782</ele><time>2009-04-13T07:40:32Z</time></trkpt>
<trkpt lat="50.83246300" lon="2.99455330"><ele>55.893799</ele><time>2009-04-13T07:40:50Z</time></trkpt>
<trkpt lat="50.83262080" lon="2.99442830"><ele>58.297119</ele><time>2009-04-13T07:40:54Z</time></trkpt>
<trkpt lat="50.83257260" lon="2.99438060"><ele>57.335815</ele><time>2009-04-13T07:41:02Z</time></trkpt>
<trkpt lat="50.83229440" lon="2.99355890"><ele>57.335815</ele><time>2009-04-13T07:41:13Z</time></trkpt>
<trkpt lat="50.83258000" lon="2.99328440"><ele>56.374512</ele><time>2009-04-13T07:41:22Z</time></trkpt>
<trkpt lat="50.83263740" lon="2.99323970"><ele>57.335815</ele><time>2009-04-13T07:41:24Z</time></trkpt>
<trkpt lat="50.83260230" lon="2.99305390"><ele>57.335815</ele><time>2009-04-13T07:41:29Z</time></trkpt>
<trkpt lat="50.83277610" lon="2.99265170"><ele>57.335815</ele><time>2009-04-13T07:41:39Z</time></trkpt>
<trkpt lat="50.83269200" lon="2.99248840"><ele>57.335815</ele><time>2009-04-13T07:41:43Z</time></trkpt>
<trkpt lat="50.83195670" lon="2.99158980"><ele>55.413086</ele><time>2009-04-13T07:42:01Z</time></trkpt>
<trkpt lat="50.83157780" lon="2.99116950"><ele>53.971191</ele><time>2009-04-13T07:42:10Z</time></trkpt>
<trkpt lat="50.83146220" lon="2.99088700"><ele>52.529175</ele><time>2009-04-13T07:42:14Z</time></trkpt>
<trkpt lat="50.83131320" lon="2.99037590"><ele>47.241821</ele><time>2009-04-13T07:42:19Z</time></trkpt>
<trkpt lat="50.83121750" lon="2.99004810"><ele>48.203369</ele><time>2009-04-13T07:42:25Z</time></trkpt>
<trkpt lat="50.83119100" lon="2.98995690"><ele>47.241821</ele><time>2009-04-13T07:42:28Z</time></trkpt>
<trkpt lat="50.83118640" lon="2.98994110"><ele>47.241821</ele><time>2009-04-13T07:42:30Z</time></trkpt>
<trkpt lat="50.83128580" lon="2.98982750"><ele>46.76123</ele><time>2009-04-13T07:42:34Z</time></trkpt>
<trkpt lat="50.83177750" lon="2.98965720"><ele>48.68396</ele><time>2009-04-13T07:42:47Z</time></trkpt>
<trkpt lat="50.83246240" lon="2.98933790"><ele>47.241821</ele><time>2009-04-13T07:43:01Z</time></trkpt>
<trkpt lat="50.83304000" lon="2.98888730"><ele>43.877319</ele><time>2009-04-13T07:43:11Z</time></trkpt>
<trkpt lat="50.83322680" lon="2.98875650"><ele>42.435425</ele><time>2009-04-13T07:43:14Z</time></trkpt>
<trkpt lat="50.83369250" lon="2.98840710"><ele>43.396606</ele><time>2009-04-13T07:43:22Z</time></trkpt>
<trkpt lat="50.83383590" lon="2.98829680"><ele>43.396606</ele><time>2009-04-13T07:43:25Z</time></trkpt>
<trkpt lat="50.83386340" lon="2.98805950"><ele>43.396606</ele><time>2009-04-13T07:43:29Z</time></trkpt>
<trkpt lat="50.83341330" lon="2.98639750"><ele>41.473999</ele><time>2009-04-13T07:43:45Z</time></trkpt>
<trkpt lat="50.83318650" lon="2.98550850"><ele>44.358032</ele><time>2009-04-13T07:43:54Z</time></trkpt>
<trkpt lat="50.83290520" lon="2.98453410"><ele>46.28064</ele><time>2009-04-13T07:44:06Z</time></trkpt>
<trkpt lat="50.83256970" lon="2.98308010"><ele>45.799927</ele><time>2009-04-13T07:44:23Z</time></trkpt>
<trkpt lat="50.83230000" lon="2.98191130"><ele>47.241821</ele><time>2009-04-13T07:44:37Z</time></trkpt>
<trkpt lat="50.83224630" lon="2.98167890"><ele>47.722534</ele><time>2009-04-13T07:44:40Z</time></trkpt>
<trkpt lat="50.83218810" lon="2.98145770"><ele>49.164551</ele><time>2009-04-13T07:44:44Z</time></trkpt>
<trkpt lat="50.83207820" lon="2.98145770"><ele>49.164551</ele><time>2009-04-13T07:44:48Z</time></trkpt>
<trkpt lat="50.83188440" lon="2.98145770"><ele>48.68396</ele><time>2009-04-13T07:44:53Z</time></trkpt>
<trkpt lat="50.83183560" lon="2.98138510"><ele>48.203369</ele><time>2009-04-13T07:44:57Z</time></trkpt>
<trkpt lat="50.83173890" lon="2.98089910"><ele>49.645264</ele><time>2009-04-13T07:45:05Z</time></trkpt>
<trkpt lat="50.83176500" lon="2.98061160"><ele>50.606567</ele><time>2009-04-13T07:45:09Z</time></trkpt>
<trkpt lat="50.83183410" lon="2.97985140"><ele>53.971191</ele><time>2009-04-13T07:45:21Z</time></trkpt>
<trkpt lat="50.83189420" lon="2.97919050"><ele>56.855103</ele><time>2009-04-13T07:45:31Z</time></trkpt>
<trkpt lat="50.83193780" lon="2.97856010"><ele>58.77771</ele><time>2009-04-13T07:45:41Z</time></trkpt>
<trkpt lat="50.83193780" lon="2.97823790"><ele>59.258423</ele><time>2009-04-13T07:45:46Z</time></trkpt>
<trkpt lat="50.83194300" lon="2.97803490"><ele>58.77771</ele><time>2009-04-13T07:45:49Z</time></trkpt>
<trkpt lat="50.83197700" lon="2.97698230"><ele>58.77771</ele><time>2009-04-13T07:46:04Z</time></trkpt>
<trkpt lat="50.83197950" lon="2.97690230"><ele>58.77771</ele><time>2009-04-13T07:46:05Z</time></trkpt>
<trkpt lat="50.83198150" lon="2.97646340"><ele>59.258423</ele><time>2009-04-13T07:46:13Z</time></trkpt>
<trkpt lat="50.83163190" lon="2.97634290"><ele>57.335815</ele><time>2009-04-13T07:46:19Z</time></trkpt>
<trkpt lat="50.83109210" lon="2.97615670"><ele>54.451782</ele><time>2009-04-13T07:46:26Z</time></trkpt>
<trkpt lat="50.82999280" lon="2.97547090"><ele>52.529175</ele><time>2009-04-13T07:46:39Z</time></trkpt>
<trkpt lat="50.82988980" lon="2.97540090"><ele>53.490479</ele><time>2009-04-13T07:46:41Z</time></trkpt>
<trkpt lat="50.82986160" lon="2.97501760"><ele>51.567871</ele><time>2009-04-13T07:46:45Z</time></trkpt>
<trkpt lat="50.82990100" lon="2.97450580"><ele>45.799927</ele><time>2009-04-13T07:46:49Z</time></trkpt>
<trkpt lat="50.82991910" lon="2.97417830"><ele>41.954712</ele><time>2009-04-13T07:46:51Z</time></trkpt>
<trkpt lat="50.82991030" lon="2.97380020"><ele>36.66748</ele><time>2009-04-13T07:46:53Z</time></trkpt>
<trkpt lat="50.82990080" lon="2.97339330"><ele>34.744873</ele><time>2009-04-13T07:46:55Z</time></trkpt>
<trkpt lat="50.82988180" lon="2.97257330"><ele>30.899536</ele><time>2009-04-13T07:46:59Z</time></trkpt>
<trkpt lat="50.82979810" lon="2.97177610"><ele>28.496216</ele><time>2009-04-13T07:47:03Z</time></trkpt>
<trkpt lat="50.82961370" lon="2.97032750"><ele>31.860718</ele><time>2009-04-13T07:47:11Z</time></trkpt>
<trkpt lat="50.82959560" lon="2.97018560"><ele>33.302856</ele><time>2009-04-13T07:47:12Z</time></trkpt>
<trkpt lat="50.82980180" lon="2.96892050"><ele>36.186768</ele><time>2009-04-13T07:47:22Z</time></trkpt>
<trkpt lat="50.82990840" lon="2.96838710"><ele>37.148071</ele><time>2009-04-13T07:47:27Z</time></trkpt>
<trkpt lat="50.83012900" lon="2.96804800"><ele>40.032104</ele><time>2009-04-13T07:47:34Z</time></trkpt>
<trkpt lat="50.83012500" lon="2.96798170"><ele>40.032104</ele><time>2009-04-13T07:47:35Z</time></trkpt>
<trkpt lat="50.83005940" lon="2.96690040"><ele>42.435425</ele><time>2009-04-13T07:47:49Z</time></trkpt>
<trkpt lat="50.83005330" lon="2.96679890"><ele>42.916016</ele><time>2009-04-13T07:47:51Z</time></trkpt>
<trkpt lat="50.82964830" lon="2.96681790"><ele>41.473999</ele><time>2009-04-13T07:48:00Z</time></trkpt>
<trkpt lat="50.82939350" lon="2.96686880"><ele>41.473999</ele><time>2009-04-13T07:48:05Z</time></trkpt>
<trkpt lat="50.82905220" lon="2.96693700"><ele>40.512817</ele><time>2009-04-13T07:48:11Z</time></trkpt>
<trkpt lat="50.82862670" lon="2.96702220"><ele>40.993408</ele><time>2009-04-13T07:48:20Z</time></trkpt>
<trkpt lat="50.82850560" lon="2.96704650"><ele>39.55127</ele><time>2009-04-13T07:48:35Z</time></trkpt>
<trkpt lat="50.82840730" lon="2.96706620"><ele>39.070679</ele><time>2009-04-13T07:48:37Z</time></trkpt>
<trkpt lat="50.82787470" lon="2.96716120"><ele>38.109375</ele><time>2009-04-13T07:48:46Z</time></trkpt>
<trkpt lat="50.82760990" lon="2.96710810"><ele>36.66748</ele><time>2009-04-13T07:48:50Z</time></trkpt>
<trkpt lat="50.82735300" lon="2.96717400"><ele>36.186768</ele><time>2009-04-13T07:48:54Z</time></trkpt>
<trkpt lat="50.82712360" lon="2.96734940"><ele>35.225464</ele><time>2009-04-13T07:48:58Z</time></trkpt>
<trkpt lat="50.82694460" lon="2.96748630"><ele>33.783447</ele><time>2009-04-13T07:49:02Z</time></trkpt>
<trkpt lat="50.82606550" lon="2.96814880"><ele>31.860718</ele><time>2009-04-13T07:49:13Z</time></trkpt>
<trkpt lat="50.82573970" lon="2.96830240"><ele>31.380127</ele><time>2009-04-13T07:49:17Z</time></trkpt>
<trkpt lat="50.82541680" lon="2.96834550"><ele>32.341553</ele><time>2009-04-13T07:49:21Z</time></trkpt>
<trkpt lat="50.82524600" lon="2.96832960"><ele>34.26416</ele><time>2009-04-13T07:49:25Z</time></trkpt>
<trkpt lat="50.82525520" lon="2.96820970"><ele>33.302856</ele><time>2009-04-13T07:49:27Z</time></trkpt>
<trkpt lat="50.82526900" lon="2.96803140"><ele>32.822266</ele><time>2009-04-13T07:49:29Z</time></trkpt>
<trkpt lat="50.82536440" lon="2.96679000"><ele>34.26416</ele><time>2009-04-13T07:49:41Z</time></trkpt>
<trkpt lat="50.82542150" lon="2.96611060"><ele>35.706055</ele><time>2009-04-13T07:49:48Z</time></trkpt>
<trkpt lat="50.82579720" lon="2.96467840"><ele>38.109375</ele><time>2009-04-13T07:50:04Z</time></trkpt>
<trkpt lat="50.82586700" lon="2.96441240"><ele>38.590088</ele><time>2009-04-13T07:50:07Z</time></trkpt>
<trkpt lat="50.82622790" lon="2.96311990"><ele>41.473999</ele><time>2009-04-13T07:50:22Z</time></trkpt>
<trkpt lat="50.82659460" lon="2.96196350"><ele>43.877319</ele><time>2009-04-13T07:50:36Z</time></trkpt>
<trkpt lat="50.82665920" lon="2.96161040"><ele>45.319214</ele><time>2009-04-13T07:50:40Z</time></trkpt>
<trkpt lat="50.82665920" lon="2.96083320"><ele>46.76123</ele><time>2009-04-13T07:50:51Z</time></trkpt>
<trkpt lat="50.82665920" lon="2.96058430"><ele>47.722534</ele><time>2009-04-13T07:50:55Z</time></trkpt>
<trkpt lat="50.82668030" lon="2.96032370"><ele>48.68396</ele><time>2009-04-13T07:50:57Z</time></trkpt>
<trkpt lat="50.82674740" lon="2.95998850"><ele>50.125977</ele><time>2009-04-13T07:51:01Z</time></trkpt>
<trkpt lat="50.82681920" lon="2.95968550"><ele>50.606567</ele><time>2009-04-13T07:51:05Z</time></trkpt>
<trkpt lat="50.82687800" lon="2.95949740"><ele>51.567871</ele><time>2009-04-13T07:51:08Z</time></trkpt>
<trkpt lat="50.82714960" lon="2.95888860"><ele>54.451782</ele><time>2009-04-13T07:51:19Z</time></trkpt>
<trkpt lat="50.82740280" lon="2.95850320"><ele>54.932373</ele><time>2009-04-13T07:51:29Z</time></trkpt>
<trkpt lat="50.82755180" lon="2.95827190"><ele>55.413086</ele><time>2009-04-13T07:51:33Z</time></trkpt>
<trkpt lat="50.82777220" lon="2.95792310"><ele>55.413086</ele><time>2009-04-13T07:51:39Z</time></trkpt>
<trkpt lat="50.82780370" lon="2.95730740"><ele>55.893799</ele><time>2009-04-13T07:51:46Z</time></trkpt>
<trkpt lat="50.82773240" lon="2.95724420"><ele>55.413086</ele><time>2009-04-13T07:51:48Z</time></trkpt>
<trkpt lat="50.82748310" lon="2.95718570"><ele>54.451782</ele><time>2009-04-13T07:51:52Z</time></trkpt>
<trkpt lat="50.82730530" lon="2.95720550"><ele>53.971191</ele><time>2009-04-13T07:51:55Z</time></trkpt>
<trkpt lat="50.82711170" lon="2.95722710"><ele>53.490479</ele><time>2009-04-13T07:51:58Z</time></trkpt>
<trkpt lat="50.82678960" lon="2.95726280"><ele>53.009766</ele><time>2009-04-13T07:52:03Z</time></trkpt>
<trkpt lat="50.82656150" lon="2.95728820"><ele>52.529175</ele><time>2009-04-13T07:52:06Z</time></trkpt>
<trkpt lat="50.82592340" lon="2.95683610"><ele>52.529175</ele><time>2009-04-13T07:52:15Z</time></trkpt>
<trkpt lat="50.82590300" lon="2.95679140"><ele>53.490479</ele><time>2009-04-13T07:52:16Z</time></trkpt>
<trkpt lat="50.82593300" lon="2.95631140"><ele>51.567871</ele><time>2009-04-13T07:52:27Z</time></trkpt>
<trkpt lat="50.82601030" lon="2.95616200"><ele>50.606567</ele><time>2009-04-13T07:52:30Z</time></trkpt>
<trkpt lat="50.82621780" lon="2.95576080"><ele>48.203369</ele><time>2009-04-13T07:52:36Z</time></trkpt>
<trkpt lat="50.82630500" lon="2.95559220"><ele>47.722534</ele><time>2009-04-13T07:52:38Z</time></trkpt>
<trkpt lat="50.82640460" lon="2.95539970"><ele>45.799927</ele><time>2009-04-13T07:52:42Z</time></trkpt>
<trkpt lat="50.82640140" lon="2.95540590"><ele>44.358032</ele><time>2009-04-13T07:52:44Z</time></trkpt>
<trkpt lat="50.82641120" lon="2.95538700"><ele>41.954712</ele><time>2009-04-13T07:52:49Z</time></trkpt>
<trkpt lat="50.82640670" lon="2.95539560"><ele>45.799927</ele><time>2009-04-13T07:52:55Z</time></trkpt>
<trkpt lat="50.82720700" lon="2.95382710"><ele>46.76123</ele><time>2009-04-13T07:52:57Z</time></trkpt>
<trkpt lat="50.82734020" lon="2.95357390"><ele>46.76123</ele><time>2009-04-13T07:53:00Z</time></trkpt>
<trkpt lat="50.82772470" lon="2.95282890"><ele>49.164551</ele><time>2009-04-13T07:53:10Z</time></trkpt>
<trkpt lat="50.82792550" lon="2.95244180"><ele>50.606567</ele><time>2009-04-13T07:53:15Z</time></trkpt>
<trkpt lat="50.82830140" lon="2.95179420"><ele>51.567871</ele><time>2009-04-13T07:53:25Z</time></trkpt>
<trkpt lat="50.82872850" lon="2.95107670"><ele>54.451782</ele><time>2009-04-13T07:53:35Z</time></trkpt>
<trkpt lat="50.82885030" lon="2.95087210"><ele>54.451782</ele><time>2009-04-13T07:53:39Z</time></trkpt>
<trkpt lat="50.82897600" lon="2.95066100"><ele>54.451782</ele><time>2009-04-13T07:53:43Z</time></trkpt>
<trkpt lat="50.82913000" lon="2.95060900"><ele>53.971191</ele><time>2009-04-13T07:53:49Z</time></trkpt>
<trkpt lat="50.82933040" lon="2.95088530"><ele>55.413086</ele><time>2009-04-13T07:53:55Z</time></trkpt>
<trkpt lat="50.82973910" lon="2.95144920"><ele>58.297119</ele><time>2009-04-13T07:54:06Z</time></trkpt>
<trkpt lat="50.82982320" lon="2.95156510"><ele>58.77771</ele><time>2009-04-13T07:54:08Z</time></trkpt>
<trkpt lat="50.83028060" lon="2.95219610"><ele>61.661743</ele><time>2009-04-13T07:54:18Z</time></trkpt>
<trkpt lat="50.83054740" lon="2.95270810"><ele>62.622925</ele><time>2009-04-13T07:54:28Z</time></trkpt>
<trkpt lat="50.83051320" lon="2.95286980"><ele>62.142334</ele><time>2009-04-13T07:54:32Z</time></trkpt>
<trkpt lat="50.83025670" lon="2.95330010"><ele>58.77771</ele><time>2009-04-13T07:54:39Z</time></trkpt>
<trkpt lat="50.82997640" lon="2.95392080"><ele>55.413086</ele><time>2009-04-13T07:54:45Z</time></trkpt>
<trkpt lat="50.82960070" lon="2.95469630"><ele>52.529175</ele><time>2009-04-13T07:54:52Z</time></trkpt>
<trkpt lat="50.82905610" lon="2.95566450"><ele>52.529175</ele><time>2009-04-13T07:55:02Z</time></trkpt>
<trkpt lat="50.82872790" lon="2.95616670"><ele>52.048584</ele><time>2009-04-13T07:55:09Z</time></trkpt>
<trkpt lat="50.82859060" lon="2.95649130"><ele>53.490479</ele><time>2009-04-13T07:55:13Z</time></trkpt>
<trkpt lat="50.82845300" lon="2.95673200"><ele>54.932373</ele><time>2009-04-13T07:55:16Z</time></trkpt>
<trkpt lat="50.82828640" lon="2.95702350"><ele>56.374512</ele><time>2009-04-13T07:55:20Z</time></trkpt>
<trkpt lat="50.82816040" lon="2.95724410"><ele>55.893799</ele><time>2009-04-13T07:55:27Z</time></trkpt>
<trkpt lat="50.82854440" lon="2.95754630"><ele>55.893799</ele><time>2009-04-13T07:55:32Z</time></trkpt>
<trkpt lat="50.82912260" lon="2.95766450"><ele>56.374512</ele><time>2009-04-13T07:55:43Z</time></trkpt>
<trkpt lat="50.82947410" lon="2.95773640"><ele>56.374512</ele><time>2009-04-13T07:55:47Z</time></trkpt>
<trkpt lat="50.83006430" lon="2.95785430"><ele>57.335815</ele><time>2009-04-13T07:55:55Z</time></trkpt>
<trkpt lat="50.83018100" lon="2.95785430"><ele>57.335815</ele><time>2009-04-13T07:55:57Z</time></trkpt>
<trkpt lat="50.83077870" lon="2.95762460"><ele>58.297119</ele><time>2009-04-13T07:56:03Z</time></trkpt>
<trkpt lat="50.83119350" lon="2.95740240"><ele>58.77771</ele><time>2009-04-13T07:56:09Z</time></trkpt>
<trkpt lat="50.83140040" lon="2.95729150"><ele>58.77771</ele><time>2009-04-13T07:56:12Z</time></trkpt>
<trkpt lat="50.83156160" lon="2.95700870"><ele>58.77771</ele><time>2009-04-13T07:56:16Z</time></trkpt>
<trkpt lat="50.83162790" lon="2.95591690"><ele>57.816528</ele><time>2009-04-13T07:56:28Z</time></trkpt>
<trkpt lat="50.83164860" lon="2.95572530"><ele>58.297119</ele><time>2009-04-13T07:56:30Z</time></trkpt>
<trkpt lat="50.83178210" lon="2.95490510"><ele>58.77771</ele><time>2009-04-13T07:56:39Z</time></trkpt>
<trkpt lat="50.83188630" lon="2.95426510"><ele>60.219727</ele><time>2009-04-13T07:56:46Z</time></trkpt>
<trkpt lat="50.83191490" lon="2.95408950"><ele>60.700317</ele><time>2009-04-13T07:56:48Z</time></trkpt>
<trkpt lat="50.83183750" lon="2.95372250"><ele>61.18103</ele><time>2009-04-13T07:56:53Z</time></trkpt>
<trkpt lat="50.83178170" lon="2.95359620"><ele>61.661743</ele><time>2009-04-13T07:56:55Z</time></trkpt>
<trkpt lat="50.83157750" lon="2.95313430"><ele>61.18103</ele><time>2009-04-13T07:57:02Z</time></trkpt>
<trkpt lat="50.83117230" lon="2.95221830"><ele>61.18103</ele><time>2009-04-13T07:57:14Z</time></trkpt>
<trkpt lat="50.83102860" lon="2.95189350"><ele>61.18103</ele><time>2009-04-13T07:57:19Z</time></trkpt>
<trkpt lat="50.83102430" lon="2.95154080"><ele>60.219727</ele><time>2009-04-13T07:57:24Z</time></trkpt>
<trkpt lat="50.83150120" lon="2.95007280"><ele>58.77771</ele><time>2009-04-13T07:57:40Z</time></trkpt>
<trkpt lat="50.83152820" lon="2.94998200"><ele>58.77771</ele><time>2009-04-13T07:57:41Z</time></trkpt>
<trkpt lat="50.83178980" lon="2.94983370"><ele>60.219727</ele><time>2009-04-13T07:57:47Z</time></trkpt>
<trkpt lat="50.83183450" lon="2.94989780"><ele>60.219727</ele><time>2009-04-13T07:57:48Z</time></trkpt>
<trkpt lat="50.83221860" lon="2.95044980"><ele>61.18103</ele><time>2009-04-13T07:57:56Z</time></trkpt>
<trkpt lat="50.83247150" lon="2.95044170"><ele>60.700317</ele><time>2009-04-13T07:58:01Z</time></trkpt>
<trkpt lat="50.83339690" lon="2.94939990"><ele>61.661743</ele><time>2009-04-13T07:58:19Z</time></trkpt>
<trkpt lat="50.83339690" lon="2.94939990"><ele>62.142334</ele><time>2009-04-13T07:58:20Z</time></trkpt>
<trkpt lat="50.83362050" lon="2.94905290"><ele>61.18103</ele><time>2009-04-13T07:58:24Z</time></trkpt>
<trkpt lat="50.83387170" lon="2.94820530"><ele>62.622925</ele><time>2009-04-13T07:58:34Z</time></trkpt>
<trkpt lat="50.83389100" lon="2.94814000"><ele>63.103638</ele><time>2009-04-13T07:58:35Z</time></trkpt>
<trkpt lat="50.83400600" lon="2.94805900"><ele>64.065063</ele><time>2009-04-13T07:58:39Z</time></trkpt>
<trkpt lat="50.83450370" lon="2.94800360"><ele>61.661743</ele><time>2009-04-13T07:58:48Z</time></trkpt>
<trkpt lat="50.83500980" lon="2.94794750"><ele>58.77771</ele><time>2009-04-13T07:58:55Z</time></trkpt>
<trkpt lat="50.83535410" lon="2.94790930"><ele>58.77771</ele><time>2009-04-13T07:59:00Z</time></trkpt>
<trkpt lat="50.83540550" lon="2.94790360"><ele>59.739136</ele><time>2009-04-13T07:59:02Z</time></trkpt>
<trkpt lat="50.83543970" lon="2.94735270"><ele>59.258423</ele><time>2009-04-13T07:59:10Z</time></trkpt>
<trkpt lat="50.83556940" lon="2.94716840"><ele>56.855103</ele><time>2009-04-13T07:59:14Z</time></trkpt>
<trkpt lat="50.83591460" lon="2.94704900"><ele>53.490479</ele><time>2009-04-13T07:59:19Z</time></trkpt>
<trkpt lat="50.83598870" lon="2.94701810"><ele>53.009766</ele><time>2009-04-13T07:59:20Z</time></trkpt>
<trkpt lat="50.83606860" lon="2.94698500"><ele>52.529175</ele><time>2009-04-13T07:59:21Z</time></trkpt>
<trkpt lat="50.83651050" lon="2.94656370"><ele>48.68396</ele><time>2009-04-13T07:59:27Z</time></trkpt>
<trkpt lat="50.83666700" lon="2.94638870"><ele>48.203369</ele><time>2009-04-13T07:59:29Z</time></trkpt>
<trkpt lat="50.83766510" lon="2.94525430"><ele>47.241821</ele><time>2009-04-13T07:59:43Z</time></trkpt>
<trkpt lat="50.83832870" lon="2.94440140"><ele>46.28064</ele><time>2009-04-13T07:59:53Z</time></trkpt>
<trkpt lat="50.83838260" lon="2.94430050"><ele>46.28064</ele><time>2009-04-13T07:59:54Z</time></trkpt>
<trkpt lat="50.83854360" lon="2.94399860"><ele>46.28064</ele><time>2009-04-13T07:59:57Z</time></trkpt>
<trkpt lat="50.83884410" lon="2.94263730"><ele>43.877319</ele><time>2009-04-13T08:00:08Z</time></trkpt>
<trkpt lat="50.83913390" lon="2.94089900"><ele>43.396606</ele><time>2009-04-13T08:00:22Z</time></trkpt>
<trkpt lat="50.83937820" lon="2.93943370"><ele>42.435425</ele><time>2009-04-13T08:00:35Z</time></trkpt>
<trkpt lat="50.83953100" lon="2.93903480"><ele>41.954712</ele><time>2009-04-13T08:00:39Z</time></trkpt>
<trkpt lat="50.83980530" lon="2.93851850"><ele>41.954712</ele><time>2009-04-13T08:00:45Z</time></trkpt>
<trkpt lat="50.83977780" lon="2.93823160"><ele>42.916016</ele><time>2009-04-13T08:00:50Z</time></trkpt>
<trkpt lat="50.83961810" lon="2.93801900"><ele>42.916016</ele><time>2009-04-13T08:00:53Z</time></trkpt>
<trkpt lat="50.83950900" lon="2.93758260"><ele>42.435425</ele><time>2009-04-13T08:00:57Z</time></trkpt>
<trkpt lat="50.83944620" lon="2.93604050"><ele>44.358032</ele><time>2009-04-13T08:01:10Z</time></trkpt>
<trkpt lat="50.83938880" lon="2.93560120"><ele>46.76123</ele><time>2009-04-13T08:01:15Z</time></trkpt>
<trkpt lat="50.83901660" lon="2.93550590"><ele>47.241821</ele><time>2009-04-13T08:01:24Z</time></trkpt>
<trkpt lat="50.83864100" lon="2.93547840"><ele>48.203369</ele><time>2009-04-13T08:01:32Z</time></trkpt>
<trkpt lat="50.83861510" lon="2.93511350"><ele>47.722534</ele><time>2009-04-13T08:01:39Z</time></trkpt>
<trkpt lat="50.83866020" lon="2.93495810"><ele>47.241821</ele><time>2009-04-13T08:01:41Z</time></trkpt>
<trkpt lat="50.83918080" lon="2.93372880"><ele>45.799927</ele><time>2009-04-13T08:01:56Z</time></trkpt>
<trkpt lat="50.83981060" lon="2.93224190"><ele>46.28064</ele><time>2009-04-13T08:02:13Z</time></trkpt>
<trkpt lat="50.84029090" lon="2.93113590"><ele>47.722534</ele><time>2009-04-13T08:02:27Z</time></trkpt>
<trkpt lat="50.84086320" lon="2.92992810"><ele>48.203369</ele><time>2009-04-13T08:02:42Z</time></trkpt>
<trkpt lat="50.84090360" lon="2.92984280"><ele>48.203369</ele><time>2009-04-13T08:02:43Z</time></trkpt>
<trkpt lat="50.84091580" lon="2.92934170"><ele>47.722534</ele><time>2009-04-13T08:02:48Z</time></trkpt>
<trkpt lat="50.84076470" lon="2.92755850"><ele>45.799927</ele><time>2009-04-13T08:03:05Z</time></trkpt>
<trkpt lat="50.84074770" lon="2.92735810"><ele>45.799927</ele><time>2009-04-13T08:03:07Z</time></trkpt>
<trkpt lat="50.84077840" lon="2.92699810"><ele>43.877319</ele><time>2009-04-13T08:03:11Z</time></trkpt>
<trkpt lat="50.84071020" lon="2.92648660"><ele>44.358032</ele><time>2009-04-13T08:03:15Z</time></trkpt>
<trkpt lat="50.84045290" lon="2.92594790"><ele>43.877319</ele><time>2009-04-13T08:03:21Z</time></trkpt>
<trkpt lat="50.83989910" lon="2.92578180"><ele>40.512817</ele><time>2009-04-13T08:03:28Z</time></trkpt>
<trkpt lat="50.83973350" lon="2.92573210"><ele>39.55127</ele><time>2009-04-13T08:03:30Z</time></trkpt>
<trkpt lat="50.83919410" lon="2.92557030"><ele>36.66748</ele><time>2009-04-13T08:03:36Z</time></trkpt>
<trkpt lat="50.83910500" lon="2.92554350"><ele>36.66748</ele><time>2009-04-13T08:03:37Z</time></trkpt>
<trkpt lat="50.83847360" lon="2.92535140"><ele>34.26416</ele><time>2009-04-13T08:03:44Z</time></trkpt>
<trkpt lat="50.83797440" lon="2.92508740"><ele>33.302856</ele><time>2009-04-13T08:03:50Z</time></trkpt>
<trkpt lat="50.83770870" lon="2.92456740"><ele>32.341553</ele><time>2009-04-13T08:03:55Z</time></trkpt>
<trkpt lat="50.83760260" lon="2.92403700"><ele>34.26416</ele><time>2009-04-13T08:04:02Z</time></trkpt>
<trkpt lat="50.83748090" lon="2.92346910"><ele>33.783447</ele><time>2009-04-13T08:04:12Z</time></trkpt>
<trkpt lat="50.83745320" lon="2.92325500"><ele>33.783447</ele><time>2009-04-13T08:04:17Z</time></trkpt>
<trkpt lat="50.83747980" lon="2.92333520"><ele>33.783447</ele><time>2009-04-13T08:04:22Z</time></trkpt>
<trkpt lat="50.83739170" lon="2.92347720"><ele>32.822266</ele><time>2009-04-13T08:04:27Z</time></trkpt>
<trkpt lat="50.83719630" lon="2.92357480"><ele>31.860718</ele><time>2009-04-13T08:04:31Z</time></trkpt>
<trkpt lat="50.83697470" lon="2.92368560"><ele>30.418823</ele><time>2009-04-13T08:04:35Z</time></trkpt>
<trkpt lat="50.83672620" lon="2.92367780"><ele>30.418823</ele><time>2009-04-13T08:04:39Z</time></trkpt>
<trkpt lat="50.83661010" lon="2.92367150"><ele>30.418823</ele><time>2009-04-13T08:04:41Z</time></trkpt>
<trkpt lat="50.83650240" lon="2.92371770"><ele>29.93811</ele><time>2009-04-13T08:04:43Z</time></trkpt>
<trkpt lat="50.83622730" lon="2.92370100"><ele>30.418823</ele><time>2009-04-13T08:04:51Z</time></trkpt>
<trkpt lat="50.83611550" lon="2.92339930"><ele>29.45752</ele><time>2009-04-13T08:04:57Z</time></trkpt>
<trkpt lat="50.83614240" lon="2.92272160"><ele>26.573608</ele><time>2009-04-13T08:05:06Z</time></trkpt>
<trkpt lat="50.83616040" lon="2.92248730"><ele>28.976929</ele><time>2009-04-13T08:05:09Z</time></trkpt>
<trkpt lat="50.83618570" lon="2.92215830"><ele>29.45752</ele><time>2009-04-13T08:05:16Z</time></trkpt>
<trkpt lat="50.83617890" lon="2.92188150"><ele>28.496216</ele><time>2009-04-13T08:05:21Z</time></trkpt>
<trkpt lat="50.83617430" lon="2.92171800"><ele>28.015503</ele><time>2009-04-13T08:05:23Z</time></trkpt>
<trkpt lat="50.83616550" lon="2.92140730"><ele>28.496216</ele><time>2009-04-13T08:05:27Z</time></trkpt>
<trkpt lat="50.83615530" lon="2.92104740"><ele>28.976929</ele><time>2009-04-13T08:05:36Z</time></trkpt>
<trkpt lat="50.83615460" lon="2.92102320"><ele>29.45752</ele><time>2009-04-13T08:05:37Z</time></trkpt>
<trkpt lat="50.83615420" lon="2.92100830"><ele>29.45752</ele><time>2009-04-13T08:05:53Z</time></trkpt>
<trkpt lat="50.83615420" lon="2.92100830"><ele>33.302856</ele><time>2009-04-13T08:05:57Z</time></trkpt>
<trkpt lat="50.83615420" lon="2.92100830"><ele>29.93811</ele><time>2009-04-13T08:05:58Z</time></trkpt>
<trkpt lat="50.83615420" lon="2.92100830"><ele>29.45752</ele><time>2009-04-13T08:06:09Z</time></trkpt>
</trkseg></trk></gpx>